Observation data for Amarillo 7 South Southeast on 12/09/2018      Previous  Date       Current Mesonet Observations  Soil Data  Daily Summary Page  Observations in Plain Language
KAM1 090600Z 26006KT M08/M10 A3031 RMK A01 T10801103  RH  084%=      5-min Rain = 0
KAM1 090601Z 26006KT M08/M10 A3031 RMK A01 T10811103  RH  084%=      5-min Rain = 0
KAM1 090602Z 27005KT M08/M10 A3031 RMK A01 T10811103  RH  084%=      5-min Rain = 0
KAM1 090603Z 27005KT M08/M10 A303 RMK A01 T10811102  RH  085%=      5-min Rain = 0
KAM1 090604Z 27005KT M08/M10 A303 RMK A01 T10811102  RH  085%=      5-min Rain = 0
KAM1 090605Z 26005KT M08/M10 A3031 RMK A01 T10811102  RH  085%=      5-min Rain = 0
KAM1 090606Z 26005KT M08/M10 A3031 RMK A01 T10811102  RH  085%=      5-min Rain = 0
KAM1 090607Z 26005KT M08/M10 A3031 RMK A01 T10811102  RH  085%=      5-min Rain = 0
KAM1 090608Z 26005KT M08/M10 A3031 RMK A01 T10811101  RH  085%=      5-min Rain = 0
KAM1 090609Z 26005KT M08/M10 A3031 RMK A01 T10801101  RH  085%=      5-min Rain = 0
KAM1 090610Z 26005KT M08/M10 A3031 RMK A01 T10801101  RH  085%=      5-min Rain = 0
KAM1 090611Z 26005KT M08/M10 A3031 RMK A01 T10791100  RH  085%=      5-min Rain = 0
KAM1 090612Z 26005KT M08/M10 A3031 RMK A01 T10781099  RH  086%=      5-min Rain = 0
KAM1 090613Z 26005KT M08/M10 A3031 RMK A01 T10781098  RH  086%=      5-min Rain = 0
KAM1 090614Z 26005KT M08/M10 A3031 RMK A01 T10771098  RH  085%=      5-min Rain = 0
KAM1 090615Z 26005KT M08/M10 A3031 RMK A01 T10771097  RH  085%=      5-min Rain = 0
KAM1 090616Z 26005KT M08/M10 A3031 RMK A01 T10751096  RH  085%=      5-min Rain = 0
KAM1 090617Z 26005KT M07/M10 A3031 RMK A01 T10741095  RH  085%=      5-min Rain = 0
KAM1 090618Z 27005KT M07/M10 A3031 RMK A01 T10741095  RH  085%=      5-min Rain = 0
KAM1 090619Z 27004KT M07/M09 A3031 RMK A01 T10731094  RH  085%=      5-min Rain = 0
KAM1 090620Z 27004KT M07/M09 A3031 RMK A01 T10731094  RH  085%=      5-min Rain = 0
KAM1 090621Z 27004KT M07/M09 A3031 RMK A01 T10721094  RH  084%=      5-min Rain = 0
KAM1 090622Z 27004KT M07/M09 A3031 RMK A01 T10721094  RH  084%=      5-min Rain = 0
KAM1 090623Z 27004KT M07/M10 A3031 RMK A01 T10721095  RH  083%=      5-min Rain = 0
KAM1 090624Z 27004KT M07/M10 A3031 RMK A01 T10731097  RH  083%=      5-min Rain = 0
KAM1 090625Z 27005KT M07/M10 A3031 RMK A01 T10731097  RH  083%=      5-min Rain = 0
KAM1 090626Z 28005KT M07/M10 A3031 RMK A01 T10731096  RH  084%=      5-min Rain = 0
KAM1 090627Z 28005KT M07/M09 A3031 RMK A01 T10721094  RH  084%=      5-min Rain = 0
KAM1 090628Z 28006KT M07/M09 A3031 RMK A01 T10711092  RH  085%=      5-min Rain = 0
KAM1 090629Z 28005KT M07/M09 A3031 RMK A01 T10701091  RH  085%=      5-min Rain = 0
KAM1 090630Z 29004KT M07/M09 A3031 RMK A01 T10671088  RH  085%=      5-min Rain = 0
KAM1 090631Z 29004KT M07/M09 A303 RMK A01 T10661088  RH  085%=      5-min Rain = 0
KAM1 090632Z 29004KT M07/M09 A303 RMK A01 T10661089  RH  084%=      5-min Rain = 0
KAM1 090633Z 28004KT M07/M09 A303 RMK A01 T10661091  RH  083%=      5-min Rain = 0
KAM1 090634Z 29004KT M07/M09 A3031 RMK A01 T10671092  RH  082%=      5-min Rain = 0
KAM1 090635Z 29004KT M07/M09 A3031 RMK A01 T10671092  RH  083%=      5-min Rain = 0
KAM1 090636Z 29004KT M07/M09 A3031 RMK A01 T10671091  RH  083%=      5-min Rain = 0
KAM1 090637Z 29004KT M07/M09 A3031 RMK A01 T10671089  RH  084%=      5-min Rain = 0
KAM1 090638Z 29004KT M07/M09 A303 RMK A01 T10651086  RH  085%=      5-min Rain = 0
KAM1 090639Z 29004KT M06/M09 A303 RMK A01 T10631085  RH  085%=      5-min Rain = 0
KAM1 090640Z 29004KT M06/M09 A303 RMK A01 T10631086  RH  084%=      5-min Rain = 0
KAM1 090641Z 29004KT M06/M09 A303 RMK A01 T10631088  RH  083%=      5-min Rain = 0
KAM1 090642Z 29004KT M07/M09 A303 RMK A01 T10651090  RH  082%=      5-min Rain = 0
KAM1 090643Z 29004KT M07/M09 A303 RMK A01 T10651089  RH  083%=      5-min Rain = 0
KAM1 090644Z 28004KT M07/M09 A303 RMK A01 T10651088  RH  084%=      5-min Rain = 0
KAM1 090645Z 28004KT M06/M09 A303 RMK A01 T10641087  RH  084%=      5-min Rain = 0
KAM1 090646Z 28004KT M06/M08 A303 RMK A01 T10621083  RH  085%=      5-min Rain = 0
KAM1 090647Z 28004KT M06/M08 A303 RMK A01 T10601081  RH  085%=      5-min Rain = 0
KAM1 090648Z 28004KT M06/M08 A303 RMK A01 T10581080  RH  084%=      5-min Rain = 0
KAM1 090649Z 27004KT M06/M08 A303 RMK A01 T10571080  RH  084%=      5-min Rain = 0
KAM1 090650Z 27004KT M06/M08 A303 RMK A01 T10561080  RH  083%=      5-min Rain = 0
KAM1 090651Z 27004KT M06/M08 A303 RMK A01 T10551081  RH  082%=      5-min Rain = 0
KAM1 090652Z 27004KT M06/M08 A303 RMK A01 T10551081  RH  082%=      5-min Rain = 0
KAM1 090653Z 27004KT M05/M08 A303 RMK A01 T10541080  RH  082%=      5-min Rain = 0
KAM1 090654Z 27004KT M05/M08 A303 RMK A01 T10541081  RH  081%=      5-min Rain = 0
KAM1 090655Z 27004KT M05/M08 A303 RMK A01 T10531081  RH  081%=      5-min Rain = 0
KAM1 090656Z 27004KT M05/M08 A303 RMK A01 T10531081  RH  081%=      5-min Rain = 0
KAM1 090657Z 27004KT M05/M08 A303 RMK A01 T10541082  RH  080%=      5-min Rain = 0
KAM1 090658Z 26005KT M05/M08 A303 RMK A01 T10541083  RH  080%=      5-min Rain = 0
KAM1 090659Z 26005KT M06/M08 A303 RMK A01 T10551084  RH  080%=      5-min Rain = 0
KAM1 090700Z 26005KT M06/M08 A303 RMK A01 T10561084  RH  081%=      5-min Rain = 0
KAM1 090701Z 26005KT M06/M08 A303 RMK A01 T10571084  RH  081%=      5-min Rain = 0
KAM1 090702Z 27004KT M06/M09 A303 RMK A01 T10581085  RH  081%=      5-min Rain = 0
KAM1 090703Z 27004KT M06/M09 A303 RMK A01 T10591086  RH  081%=      5-min Rain = 0
KAM1 090704Z 27004KT M06/M09 A303 RMK A01 T10601087  RH  081%=      5-min Rain = 0
KAM1 090705Z 28004KT M06/M09 A303 RMK A01 T10601085  RH  083%=      5-min Rain = 0
KAM1 090706Z 28004KT M06/M08 A303 RMK A01 T10591084  RH  083%=      5-min Rain = 0
KAM1 090707Z 28004KT M06/M08 A303 RMK A01 T10591084  RH  083%=      5-min Rain = 0
KAM1 090708Z 28004KT M06/M08 A303 RMK A01 T10591084  RH  083%=      5-min Rain = 0
KAM1 090709Z 28004KT M06/M08 A303 RMK A01 T10601084  RH  083%=      5-min Rain = 0
KAM1 090710Z 28003KT M06/M08 A303 RMK A01 T10601083  RH  084%=      5-min Rain = 0
KAM1 090711Z 28003KT M06/M08 A303 RMK A01 T10601082  RH  084%=      5-min Rain = 0
KAM1 090712Z 28003KT M06/M08 A303 RMK A01 T10601082  RH  085%=      5-min Rain = 0
KAM1 090713Z 28003KT M06/M08 A303 RMK A01 T10591082  RH  084%=      5-min Rain = 0
KAM1 090714Z 28003KT M06/M08 A303 RMK A01 T10601083  RH  083%=      5-min Rain = 0
KAM1 090715Z 28003KT M06/M08 A303 RMK A01 T10601084  RH  083%=      5-min Rain = 0
KAM1 090716Z 28003KT M06/M09 A303 RMK A01 T10611085  RH  083%=      5-min Rain = 0
KAM1 090717Z 28003KT M06/M09 A303 RMK A01 T10631086  RH  083%=      5-min Rain = 0
KAM1 090718Z 28003KT M06/M09 A303 RMK A01 T10631085  RH  084%=      5-min Rain = 0
KAM1 090719Z 29002KT M06/M08 A303 RMK A01 T10631084  RH  085%=      5-min Rain = 0
KAM1 090720Z 30003KT M06/M08 A303 RMK A01 T10631082  RH  086%=      5-min Rain = 0
KAM1 090721Z 30003KT M06/M08 A303 RMK A01 T10621081  RH  086%=      5-min Rain = 0
KAM1 090722Z 30003KT M06/M08 A3029 RMK A01 T10601079  RH  087%=      5-min Rain = 0
KAM1 090723Z 30004KT M06/M08 A3029 RMK A01 T10591078  RH  087%=      5-min Rain = 0
KAM1 090724Z 30004KT M06/M08 A3029 RMK A01 T10581078  RH  086%=      5-min Rain = 0
KAM1 090725Z 30004KT M06/M08 A3029 RMK A01 T10571078  RH  085%=      5-min Rain = 0
KAM1 090726Z 31004KT M06/M08 A3029 RMK A01 T10551077  RH  085%=      5-min Rain = 0
KAM1 090727Z 31004KT M05/M08 A3029 RMK A01 T10541077  RH  084%=      5-min Rain = 0
KAM1 090728Z 31004KT M05/M08 A3029 RMK A01 T10521077  RH  083%=      5-min Rain = 0
KAM1 090729Z 31004KT M05/M08 A3029 RMK A01 T10511078  RH  082%=      5-min Rain = 0
KAM1 090730Z 31004KT M05/M08 A3029 RMK A01 T10521080  RH  081%=      5-min Rain = 0
KAM1 090731Z 31004KT M05/M08 A3029 RMK A01 T10521081  RH  080%=      5-min Rain = 0
KAM1 090732Z 31004KT M05/M08 A3029 RMK A01 T10531082  RH  080%=      5-min Rain = 0
KAM1 090733Z 31004KT M06/M08 A3029 RMK A01 T10551084  RH  080%=      5-min Rain = 0
KAM1 090734Z 31004KT M06/M08 A3029 RMK A01 T10561084  RH  080%=      5-min Rain = 0
KAM1 090735Z 31004KT M06/M08 A3029 RMK A01 T10561083  RH  081%=      5-min Rain = 0
KAM1 090736Z 31004KT M06/M08 A3029 RMK A01 T10561083  RH  081%=      5-min Rain = 0
KAM1 090737Z 30004KT M06/M08 A3029 RMK A01 T10561083  RH  081%=      5-min Rain = 0
KAM1 090738Z 30004KT M06/M08 A3029 RMK A01 T10561083  RH  082%=      5-min Rain = 0
KAM1 090739Z 30004KT M06/M08 A3029 RMK A01 T10561082  RH  082%=      5-min Rain = 0
KAM1 090740Z 31005KT M06/M08 A3029 RMK A01 T10561081  RH  083%=      5-min Rain = 0
KAM1 090741Z 31005KT M06/M08 A3029 RMK A01 T10551079  RH  083%=      5-min Rain = 0
KAM1 090742Z 31005KT M05/M08 A3029 RMK A01 T10541079  RH  083%=      5-min Rain = 0
KAM1 090743Z 32005KT M05/M08 A3029 RMK A01 T10531078  RH  083%=      5-min Rain = 0
KAM1 090744Z 32005KT M05/M08 A3029 RMK A01 T10531078  RH  082%=      5-min Rain = 0
KAM1 090745Z 33005KT M05/M08 A3029 RMK A01 T10541082  RH  081%=      5-min Rain = 0
KAM1 090746Z 33005KT M06/M09 A3029 RMK A01 T10581088  RH  079%=      5-min Rain = 0
KAM1 090747Z 33005KT M06/M09 A3029 RMK A01 T10621092  RH  079%=      5-min Rain = 0
KAM1 090748Z 33005KT M07/M09 A3029 RMK A01 T10651094  RH  080%=      5-min Rain = 0
KAM1 090749Z 33005KT M07/M09 A3029 RMK A01 T10661093  RH  081%=      5-min Rain = 0
KAM1 090750Z 32006KT M07/M09 A3029 RMK A01 T10681094  RH  081%=      5-min Rain = 0
KAM1 090751Z 32006KT M07/M10 A3029 RMK A01 T10691095  RH  082%=      5-min Rain = 0
KAM1 090752Z 32006KT M07/M09 A3029 RMK A01 T10701094  RH  083%=      5-min Rain = 0
KAM1 090753Z 32006KT M07/M09 A3029 RMK A01 T10701093  RH  084%=      5-min Rain = 0
KAM1 090754Z 33006KT M07/M09 A3029 RMK A01 T10701094  RH  084%=      5-min Rain = 0
KAM1 090755Z 33006KT M07/M10 A3029 RMK A01 T10711095  RH  083%=      5-min Rain = 0
KAM1 090756Z 32006KT M07/M10 A3029 RMK A01 T10721095  RH  084%=      5-min Rain = 0
KAM1 090757Z 32005KT M07/M10 A3029 RMK A01 T10731096  RH  084%=      5-min Rain = 0
KAM1 090758Z 32005KT M07/M10 A3029 RMK A01 T10741097  RH  084%=      5-min Rain = 0
KAM1 090759Z 32004KT M07/M10 A3029 RMK A01 T10741096  RH  084%=      5-min Rain = 0
KAM1 090800Z 32004KT M07/M10 A3029 RMK A01 T10741095  RH  085%=      5-min Rain = 0
KAM1 090801Z 32004KT M07/M09 A3029 RMK A01 T10741094  RH  086%=      5-min Rain = 0
KAM1 090802Z 31004KT M07/M09 A3029 RMK A01 T10731091  RH  087%=      5-min Rain = 0
KAM1 090803Z 31004KT M07/M09 A3029 RMK A01 T10701087  RH  088%=      5-min Rain = 0
KAM1 090804Z 31004KT M07/M08 A3029 RMK A01 T10671083  RH  089%=      5-min Rain = 0
KAM1 090805Z 31004KT M07/M08 A3029 RMK A01 T10651080  RH  089%=      5-min Rain = 0
KAM1 090806Z 31003KT M06/M08 A3029 RMK A01 T10641081  RH  088%=      5-min Rain = 0
KAM1 090807Z 31003KT M06/M08 A3029 RMK A01 T10641084  RH  086%=      5-min Rain = 0
KAM1 090808Z 31004KT M06/M09 A3029 RMK A01 T10641085  RH  085%=      5-min Rain = 0
KAM1 090809Z 31004KT M06/M08 A3029 RMK A01 T10641084  RH  086%=      5-min Rain = 0
KAM1 090810Z 31004KT M06/M08 A303 RMK A01 T10621081  RH  086%=      5-min Rain = 0
KAM1 090811Z 31004KT M06/M08 A303 RMK A01 T10601079  RH  086%=      5-min Rain = 0
KAM1 090812Z 31004KT M06/M08 A303 RMK A01 T10601081  RH  085%=      5-min Rain = 0
KAM1 090813Z 31004KT M06/M08 A303 RMK A01 T10611084  RH  084%=      5-min Rain = 0
KAM1 090814Z 31005KT M06/M09 A303 RMK A01 T10631087  RH  083%=      5-min Rain = 0
KAM1 090815Z 31005KT M06/M09 A303 RMK A01 T10641088  RH  083%=      5-min Rain = 0
KAM1 090816Z 31005KT M07/M09 A303 RMK A01 T10651089  RH  083%=      5-min Rain = 0
KAM1 090817Z 31005KT M07/M09 A303 RMK A01 T10671091  RH  083%=      5-min Rain = 0
KAM1 090818Z 31005KT M07/M09 A303 RMK A01 T10681091  RH  084%=      5-min Rain = 0
KAM1 090819Z 31006KT M07/M09 A303 RMK A01 T10681090  RH  084%=      5-min Rain = 0
KAM1 090820Z 31005KT M07/M09 A303 RMK A01 T10681090  RH  085%=      5-min Rain = 0
KAM1 090821Z 31005KT M07/M09 A303 RMK A01 T10681090  RH  085%=      5-min Rain = 0
KAM1 090822Z 31005KT M07/M09 A303 RMK A01 T10691091  RH  085%=      5-min Rain = 0
KAM1 090823Z 31006KT M07/M09 A303 RMK A01 T10701092  RH  084%=      5-min Rain = 0
KAM1 090824Z 31006KT M07/M09 A303 RMK A01 T10711092  RH  085%=      5-min Rain = 0
KAM1 090825Z 31006KT M07/M09 A303 RMK A01 T10711091  RH  086%=      5-min Rain = 0
KAM1 090826Z 31006KT M07/M09 A303 RMK A01 T10701090  RH  086%=      5-min Rain = 0
KAM1 090827Z 31006KT M07/M09 A303 RMK A01 T10701090  RH  086%=      5-min Rain = 0
KAM1 090828Z 31006KT M07/M09 A303 RMK A01 T10711092  RH  085%=      5-min Rain = 0
KAM1 090829Z 32006KT M07/M09 A303 RMK A01 T10721093  RH  085%=      5-min Rain = 0
KAM1 090830Z 32006KT M07/M09 A303 RMK A01 T10721094  RH  085%=      5-min Rain = 0
KAM1 090831Z 32006KT M07/M10 A303 RMK A01 T10731095  RH  085%=      5-min Rain = 0
KAM1 090832Z 32006KT M07/M09 A303 RMK A01 T10741094  RH  085%=      5-min Rain = 0
KAM1 090833Z 31006KT M07/M09 A303 RMK A01 T10731094  RH  085%=      5-min Rain = 0
KAM1 090834Z 31006KT M07/M09 A303 RMK A01 T10731093  RH  086%=      5-min Rain = 0
KAM1 090835Z 31006KT M07/M09 A303 RMK A01 T10741093  RH  086%=      5-min Rain = 0
KAM1 090836Z 31006KT M07/M09 A303 RMK A01 T10741093  RH  086%=      5-min Rain = 0
KAM1 090837Z 32006KT M07/M09 A303 RMK A01 T10731093  RH  086%=      5-min Rain = 0
KAM1 090838Z 32006KT M07/M09 A303 RMK A01 T10731093  RH  086%=      5-min Rain = 0
KAM1 090839Z 32006KT M07/M09 A303 RMK A01 T10731092  RH  086%=      5-min Rain = 0
KAM1 090840Z 32006KT M07/M09 A303 RMK A01 T10731092  RH  087%=      5-min Rain = 0
KAM1 090841Z 32006KT M07/M09 A303 RMK A01 T10721091  RH  086%=      5-min Rain = 0
KAM1 090842Z 32006KT M07/M09 A303 RMK A01 T10731092  RH  086%=      5-min Rain = 0
KAM1 090843Z 31006KT M07/M09 A303 RMK A01 T10731092  RH  086%=      5-min Rain = 0
KAM1 090844Z 31006KT M07/M09 A303 RMK A01 T10721091  RH  087%=      5-min Rain = 0
KAM1 090845Z 31006KT M07/M09 A303 RMK A01 T10721090  RH  087%=      5-min Rain = 0
KAM1 090846Z 31006KT M07/M09 A303 RMK A01 T10721090  RH  087%=      5-min Rain = 0
KAM1 090847Z 31006KT M07/M09 A303 RMK A01 T10711088  RH  087%=      5-min Rain = 0
KAM1 090848Z 31006KT M07/M09 A303 RMK A01 T10701087  RH  087%=      5-min Rain = 0
KAM1 090849Z 31006KT M07/M09 A303 RMK A01 T10691088  RH  087%=      5-min Rain = 0
KAM1 090850Z 32006KT M07/M09 A303 RMK A01 T10691088  RH  086%=      5-min Rain = 0
KAM1 090851Z 32006KT M07/M09 A303 RMK A01 T10691088  RH  086%=      5-min Rain = 0
KAM1 090852Z 32006KT M07/M09 A303 RMK A01 T10691089  RH  086%=      5-min Rain = 0
KAM1 090853Z 32006KT M07/M09 A303 RMK A01 T10691089  RH  086%=      5-min Rain = 0
KAM1 090854Z 31006KT M07/M09 A303 RMK A01 T10691089  RH  086%=      5-min Rain = 0
KAM1 090855Z 31006KT M07/M09 A303 RMK A01 T10691089  RH  086%=      5-min Rain = 0
KAM1 090856Z 31006KT M07/M09 A303 RMK A01 T10691088  RH  086%=      5-min Rain = 0
KAM1 090857Z 31006KT M07/M09 A303 RMK A01 T10691088  RH  086%=      5-min Rain = 0
KAM1 090858Z 31006KT M07/M09 A303 RMK A01 T10691088  RH  086%=      5-min Rain = 0
KAM1 090859Z 31006KT M07/M09 A303 RMK A01 T10681086  RH  087%=      5-min Rain = 0
KAM1 090900Z 31006KT M07/M08 A303 RMK A01 T10671084  RH  088%=      5-min Rain = 0
KAM1 090901Z 31006KT M07/M08 A303 RMK A01 T10661083  RH  087%=      5-min Rain = 0
KAM1 090902Z 31006KT M07/M08 A303 RMK A01 T10651083  RH  087%=      5-min Rain = 0
KAM1 090903Z 31006KT M06/M08 A303 RMK A01 T10641082  RH  087%=      5-min Rain = 0
KAM1 090904Z 31006KT M06/M08 A303 RMK A01 T10641083  RH  087%=      5-min Rain = 0
KAM1 090905Z 31005KT M06/M08 A303 RMK A01 T10641083  RH  086%=      5-min Rain = 0
KAM1 090906Z 31005KT M06/M08 A303 RMK A01 T10631083  RH  086%=      5-min Rain = 0
KAM1 090907Z 31005KT M06/M08 A303 RMK A01 T10631082  RH  087%=      5-min Rain = 0
KAM1 090908Z 31005KT M06/M08 A303 RMK A01 T10621081  RH  087%=      5-min Rain = 0
KAM1 090909Z 31005KT M06/M08 A303 RMK A01 T10611080  RH  087%=      5-min Rain = 0
KAM1 090910Z 31004KT M06/M08 A303 RMK A01 T10611080  RH  086%=      5-min Rain = 0
KAM1 090911Z 31004KT M06/M08 A303 RMK A01 T10601080  RH  086%=      5-min Rain = 0
KAM1 090912Z 31005KT M06/M08 A303 RMK A01 T10601080  RH  086%=      5-min Rain = 0
KAM1 090913Z 31005KT M06/M08 A303 RMK A01 T10601081  RH  086%=      5-min Rain = 0
KAM1 090914Z 31005KT M06/M08 A303 RMK A01 T10601080  RH  086%=      5-min Rain = 0
KAM1 090915Z 31004KT M06/M08 A303 RMK A01 T10601081  RH  086%=      5-min Rain = 0
KAM1 090916Z 31005KT M06/M08 A303 RMK A01 T10611083  RH  085%=      5-min Rain = 0
KAM1 090917Z 31005KT M06/M08 A303 RMK A01 T10621082  RH  086%=      5-min Rain = 0
KAM1 090918Z 31005KT M06/M08 A303 RMK A01 T10601079  RH  087%=      5-min Rain = 0
KAM1 090919Z 31005KT M06/M08 A303 RMK A01 T10591076  RH  088%=      5-min Rain = 0
KAM1 090920Z 31005KT M06/M08 A303 RMK A01 T10581076  RH  087%=      5-min Rain = 0
KAM1 090921Z 31004KT M06/M08 A303 RMK A01 T10581080  RH  085%=      5-min Rain = 0
KAM1 090922Z 31004KT M06/M09 A303 RMK A01 T10621087  RH  082%=      5-min Rain = 0
KAM1 090923Z 31004KT M07/M09 A303 RMK A01 T10651092  RH  081%=      5-min Rain = 0
KAM1 090924Z 30004KT M07/M09 A303 RMK A01 T10661090  RH  083%=      5-min Rain = 0
KAM1 090925Z 30004KT M07/M09 A303 RMK A01 T10661087  RH  085%=      5-min Rain = 0
KAM1 090926Z 30004KT M07/M09 A303 RMK A01 T10671089  RH  085%=      5-min Rain = 0
KAM1 090927Z 30004KT M07/M09 A303 RMK A01 T10691090  RH  085%=      5-min Rain = 0
KAM1 090928Z 30004KT M07/M09 A303 RMK A01 T10681086  RH  087%=      5-min Rain = 0
KAM1 090929Z 30004KT M07/M08 A303 RMK A01 T10661082  RH  088%=      5-min Rain = 0
KAM1 090930Z 30004KT M07/M08 A303 RMK A01 T10651082  RH  088%=      5-min Rain = 0
KAM1 090931Z 30004KT M07/M08 A303 RMK A01 T10651084  RH  087%=      5-min Rain = 0
KAM1 090932Z 31004KT M07/M09 A303 RMK A01 T10671087  RH  086%=      5-min Rain = 0
KAM1 090933Z 31004KT M07/M09 A303 RMK A01 T10681088  RH  086%=      5-min Rain = 0
KAM1 090934Z 31004KT M07/M09 A303 RMK A01 T10671085  RH  087%=      5-min Rain = 0
KAM1 090935Z 31004KT M07/M09 A303 RMK A01 T10671085  RH  087%=      5-min Rain = 0
KAM1 090936Z 31004KT M07/M09 A303 RMK A01 T10681088  RH  086%=      5-min Rain = 0
KAM1 090937Z 31004KT M07/M09 A303 RMK A01 T10701091  RH  085%=      5-min Rain = 0
KAM1 090938Z 31004KT M07/M09 A303 RMK A01 T10701088  RH  087%=      5-min Rain = 0
KAM1 090939Z 31004KT M07/M09 A303 RMK A01 T10691086  RH  088%=      5-min Rain = 0
KAM1 090940Z 31004KT M07/M09 A303 RMK A01 T10691085  RH  088%=      5-min Rain = 0
KAM1 090941Z 31004KT M07/M08 A303 RMK A01 T10691084  RH  089%=      5-min Rain = 0
KAM1 090942Z 31004KT M07/M08 A303 RMK A01 T10681084  RH  089%=      5-min Rain = 0
KAM1 090943Z 31004KT M07/M08 A303 RMK A01 T10681084  RH  089%=      5-min Rain = 0
KAM1 090944Z 31004KT M07/M08 A303 RMK A01 T10681083  RH  089%=      5-min Rain = 0
KAM1 090945Z 31004KT M07/M08 A303 RMK A01 T10681083  RH  089%=      5-min Rain = 0
KAM1 090946Z 32004KT M07/M08 A303 RMK A01 T10671082  RH  089%=      5-min Rain = 0
KAM1 090947Z 32005KT M07/M08 A303 RMK A01 T10671083  RH  089%=      5-min Rain = 0
KAM1 090948Z 32005KT M07/M08 A303 RMK A01 T10681082  RH  090%=      5-min Rain = 0
KAM1 090949Z 32005KT M07/M08 A303 RMK A01 T10681082  RH  090%=      5-min Rain = 0
KAM1 090950Z 31005KT M07/M08 A303 RMK A01 T10681083  RH  089%=      5-min Rain = 0
KAM1 090951Z 31005KT M07/M09 A303 RMK A01 T10691085  RH  089%=      5-min Rain = 0
KAM1 090952Z 31005KT M07/M09 A303 RMK A01 T10711087  RH  088%=      5-min Rain = 0
KAM1 090953Z 31005KT M07/M09 A303 RMK A01 T10721089  RH  088%=      5-min Rain = 0
KAM1 090954Z 32005KT M07/M09 A303 RMK A01 T10731090  RH  087%=      5-min Rain = 0
KAM1 090955Z 32004KT M07/M09 A303 RMK A01 T10731090  RH  088%=      5-min Rain = 0
KAM1 090956Z 32004KT M07/M09 A303 RMK A01 T10731088  RH  089%=      5-min Rain = 0
KAM1 090957Z 32005KT M07/M08 A303 RMK A01 T10701083  RH  090%=      5-min Rain = 0
KAM1 090958Z 32005KT M07/M08 A303 RMK A01 T10681080  RH  091%=      5-min Rain = 0
KAM1 090959Z 32005KT M07/M08 A303 RMK A01 T10681080  RH  091%=      5-min Rain = 0
KAM1 091000Z 32006KT M07/M08 A303 RMK A01 T10681083  RH  090%=      5-min Rain = 0
KAM1 091001Z 32006KT M07/M09 A303 RMK A01 T10701086  RH  089%=      5-min Rain = 0
KAM1 091002Z 32006KT M07/M09 A303 RMK A01 T10711087  RH  088%=      5-min Rain = 0
KAM1 091003Z 32006KT M07/M09 A303 RMK A01 T10711087  RH  089%=      5-min Rain = 0
KAM1 091004Z 32006KT M07/M09 A303 RMK A01 T10711086  RH  089%=      5-min Rain = 0
KAM1 091005Z 32006KT M07/M09 A303 RMK A01 T10711086  RH  090%=      5-min Rain = 0
KAM1 091006Z 32006KT M07/M09 A303 RMK A01 T10701085  RH  090%=      5-min Rain = 0
KAM1 091007Z 32006KT M07/M08 A303 RMK A01 T10701084  RH  090%=      5-min Rain = 0
KAM1 091008Z 32006KT M07/M08 A303 RMK A01 T10701084  RH  090%=      5-min Rain = 0
KAM1 091009Z 33006KT M07/M08 A303 RMK A01 T10701084  RH  089%=      5-min Rain = 0
KAM1 091010Z 33005KT M07/M08 A303 RMK A01 T10691084  RH  089%=      5-min Rain = 0
KAM1 091011Z 33005KT M07/M08 A303 RMK A01 T10691084  RH  089%=      5-min Rain = 0
KAM1 091012Z 33005KT M07/M09 A303 RMK A01 T10691085  RH  089%=      5-min Rain = 0
KAM1 091013Z 33005KT M07/M09 A303 RMK A01 T10701086  RH  088%=      5-min Rain = 0
KAM1 091014Z 33005KT M07/M09 A303 RMK A01 T10711088  RH  088%=      5-min Rain = 0
KAM1 091015Z 33005KT M07/M09 A303 RMK A01 T10711088  RH  088%=      5-min Rain = 0
KAM1 091016Z 33004KT M07/M09 A303 RMK A01 T10711085  RH  089%=      5-min Rain = 0
KAM1 091017Z 33004KT M07/M08 A303 RMK A01 T10701084  RH  090%=      5-min Rain = 0
KAM1 091018Z 33004KT M07/M08 A303 RMK A01 T10691082  RH  090%=      5-min Rain = 0
KAM1 091019Z 33004KT M07/M08 A303 RMK A01 T10681081  RH  090%=      5-min Rain = 0
KAM1 091020Z 33004KT M07/M08 A303 RMK A01 T10671081  RH  090%=      5-min Rain = 0
KAM1 091021Z 33004KT M07/M08 A303 RMK A01 T10671079  RH  091%=      5-min Rain = 0
KAM1 091022Z 33005KT M07/M08 A303 RMK A01 T10651077  RH  091%=      5-min Rain = 0
KAM1 091023Z 33005KT M06/M08 A303 RMK A01 T10631075  RH  091%=      5-min Rain = 0
KAM1 091024Z 33005KT M06/M07 A303 RMK A01 T10611073  RH  092%=      5-min Rain = 0
KAM1 091025Z 33006KT M06/M07 A303 RMK A01 T10601071  RH  091%=      5-min Rain = 0
KAM1 091026Z 33006KT M06/M07 A303 RMK A01 T10591072  RH  090%=      5-min Rain = 0
KAM1 091027Z 33006KT M06/M08 A303 RMK A01 T10611076  RH  088%=      5-min Rain = 0
KAM1 091028Z 33005KT M06/M08 A303 RMK A01 T10631082  RH  087%=      5-min Rain = 0
KAM1 091029Z 33006KT M07/M09 A303 RMK A01 T10651085  RH  086%=      5-min Rain = 0
KAM1 091030Z 32006KT M07/M09 A303 RMK A01 T10671085  RH  087%=      5-min Rain = 0
KAM1 091031Z 33006KT M07/M09 A303 RMK A01 T10671085  RH  087%=      5-min Rain = 0
KAM1 091032Z 33006KT M07/M09 A303 RMK A01 T10681085  RH  088%=      5-min Rain = 0
KAM1 091033Z 32006KT M07/M08 A303 RMK A01 T10671084  RH  088%=      5-min Rain = 0
KAM1 091034Z 33006KT M07/M08 A303 RMK A01 T10671083  RH  088%=      5-min Rain = 0
KAM1 091035Z 33006KT M07/M08 A303 RMK A01 T10661082  RH  089%=      5-min Rain = 0
KAM1 091036Z 33005KT M07/M08 A303 RMK A01 T10661081  RH  089%=      5-min Rain = 0
KAM1 091037Z 33005KT M07/M08 A303 RMK A01 T10661081  RH  089%=      5-min Rain = 0
KAM1 091038Z 33006KT M07/M08 A303 RMK A01 T10651081  RH  089%=      5-min Rain = 0
KAM1 091039Z 33006KT M07/M08 A303 RMK A01 T10651081  RH  088%=      5-min Rain = 0
KAM1 091040Z 33006KT M07/M08 A303 RMK A01 T10651081  RH  088%=      5-min Rain = 0
KAM1 091041Z 33006KT M06/M08 A303 RMK A01 T10641081  RH  088%=      5-min Rain = 0
KAM1 091042Z 32006KT M06/M08 A303 RMK A01 T10641081  RH  088%=      5-min Rain = 0
KAM1 091043Z 32006KT M06/M08 A303 RMK A01 T10641081  RH  088%=      5-min Rain = 0
KAM1 091044Z 32006KT M06/M08 A303 RMK A01 T10631081  RH  088%=      5-min Rain = 0
KAM1 091045Z 32005KT M06/M08 A303 RMK A01 T10631081  RH  087%=      5-min Rain = 0
KAM1 091046Z 32005KT M06/M08 A303 RMK A01 T10631081  RH  087%=      5-min Rain = 0
KAM1 091047Z 33004KT M06/M08 A303 RMK A01 T10621081  RH  087%=      5-min Rain = 0
KAM1 091048Z 33005KT M06/M08 A303 RMK A01 T10621081  RH  086%=      5-min Rain = 0
KAM1 091049Z 33005KT M06/M08 A303 RMK A01 T10621082  RH  086%=      5-min Rain = 0
KAM1 091050Z 33006KT M06/M08 A303 RMK A01 T10621081  RH  086%=      5-min Rain = 0
KAM1 091051Z 33006KT M06/M08 A303 RMK A01 T10611080  RH  087%=      5-min Rain = 0
KAM1 091052Z 33006KT M06/M08 A303 RMK A01 T10611081  RH  086%=      5-min Rain = 0
KAM1 091053Z 33006KT M06/M08 A303 RMK A01 T10621083  RH  085%=      5-min Rain = 0
KAM1 091054Z 33005KT M06/M08 A303 RMK A01 T10631084  RH  085%=      5-min Rain = 0
KAM1 091055Z 33005KT M06/M09 A303 RMK A01 T10641085  RH  085%=      5-min Rain = 0
KAM1 091056Z 33006KT M06/M08 A303 RMK A01 T10641084  RH  086%=      5-min Rain = 0
KAM1 091057Z 33006KT M06/M08 A303 RMK A01 T10641084  RH  086%=      5-min Rain = 0
KAM1 091058Z 33006KT M06/M08 A303 RMK A01 T10641084  RH  086%=      5-min Rain = 0
KAM1 091059Z 33005KT M06/M08 A303 RMK A01 T10641084  RH  086%=      5-min Rain = 0
KAM1 091100Z 33005KT M06/M08 A303 RMK A01 T10641084  RH  086%=      5-min Rain = 0
KAM1 091101Z 33005KT M06/M08 A303 RMK A01 T10641084  RH  086%=      5-min Rain = 0
KAM1 091102Z 33005KT M06/M08 A303 RMK A01 T10641083  RH  086%=      5-min Rain = 0
KAM1 091103Z 34005KT M06/M08 A303 RMK A01 T10641083  RH  086%=      5-min Rain = 0
KAM1 091104Z 34005KT M06/M08 A303 RMK A01 T10631082  RH  087%=      5-min Rain = 0
KAM1 091105Z 34005KT M06/M08 A303 RMK A01 T10611080  RH  087%=      5-min Rain = 0
KAM1 091106Z 34005KT M06/M08 A303 RMK A01 T10611079  RH  087%=      5-min Rain = 0
KAM1 091107Z 34005KT M06/M08 A303 RMK A01 T10601080  RH  086%=      5-min Rain = 0
KAM1 091108Z 34006KT M06/M08 A303 RMK A01 T10601081  RH  085%=      5-min Rain = 0
KAM1 091109Z 33006KT M06/M08 A303 RMK A01 T10611084  RH  084%=      5-min Rain = 0
KAM1 091110Z 33006KT M06/M09 A303 RMK A01 T10631087  RH  084%=      5-min Rain = 0
KAM1 091111Z 33006KT M07/M09 A303 RMK A01 T10651088  RH  083%=      5-min Rain = 0
KAM1 091112Z 33005KT M07/M09 A303 RMK A01 T10661089  RH  084%=      5-min Rain = 0
KAM1 091113Z 33005KT M07/M09 A303 RMK A01 T10661089  RH  084%=      5-min Rain = 0
KAM1 091114Z 33005KT M07/M09 A303 RMK A01 T10671089  RH  084%=      5-min Rain = 0
KAM1 091115Z 33005KT M07/M09 A303 RMK A01 T10661087  RH  085%=      5-min Rain = 0
KAM1 091116Z 33005KT M07/M09 A303 RMK A01 T10661085  RH  086%=      5-min Rain = 0
KAM1 091117Z 33005KT M07/M08 A303 RMK A01 T10651084  RH  086%=      5-min Rain = 0
KAM1 091118Z 33005KT M07/M09 A3029 RMK A01 T10651085  RH  086%=      5-min Rain = 0
KAM1 091119Z 33005KT M07/M09 A3029 RMK A01 T10661087  RH  085%=      5-min Rain = 0
KAM1 091120Z 33005KT M07/M09 A3029 RMK A01 T10661086  RH  086%=      5-min Rain = 0
KAM1 091121Z 33005KT M07/M09 A3029 RMK A01 T10671086  RH  086%=      5-min Rain = 0
KAM1 091122Z 33005KT M07/M09 A3029 RMK A01 T10661085  RH  087%=      5-min Rain = 0
KAM1 091123Z 33005KT M07/M09 A3029 RMK A01 T10661085  RH  086%=      5-min Rain = 0
KAM1 091124Z 33005KT M07/M09 A3029 RMK A01 T10661086  RH  086%=      5-min Rain = 0
KAM1 091125Z 33005KT M07/M09 A3029 RMK A01 T10671087  RH  086%=      5-min Rain = 0
KAM1 091126Z 33005KT M07/M09 A3029 RMK A01 T10671087  RH  086%=      5-min Rain = 0
KAM1 091127Z 34005KT M07/M09 A3029 RMK A01 T10671085  RH  087%=      5-min Rain = 0
KAM1 091128Z 34005KT M07/M08 A3029 RMK A01 T10661084  RH  087%=      5-min Rain = 0
KAM1 091129Z 34005KT M07/M09 A3029 RMK A01 T10651085  RH  086%=      5-min Rain = 0
KAM1 091130Z 34005KT M07/M08 A303 RMK A01 T10651084  RH  086%=      5-min Rain = 0
KAM1 091131Z 34005KT M06/M08 A303 RMK A01 T10631081  RH  087%=      5-min Rain = 0
KAM1 091132Z 34005KT M06/M08 A303 RMK A01 T10611079  RH  087%=      5-min Rain = 0
KAM1 091133Z 34005KT M06/M08 A303 RMK A01 T10611082  RH  085%=      5-min Rain = 0
KAM1 091134Z 33005KT M06/M08 A303 RMK A01 T10611083  RH  085%=      5-min Rain = 0
KAM1 091135Z 33005KT M06/M08 A303 RMK A01 T10621083  RH  085%=      5-min Rain = 0
KAM1 091136Z 33005KT M06/M08 A303 RMK A01 T10611082  RH  085%=      5-min Rain = 0
KAM1 091137Z 33005KT M06/M08 A303 RMK A01 T10611083  RH  085%=      5-min Rain = 0
KAM1 091138Z 33005KT M06/M09 A303 RMK A01 T10621085  RH  084%=      5-min Rain = 0
KAM1 091139Z 33005KT M06/M09 A303 RMK A01 T10631086  RH  084%=      5-min Rain = 0
KAM1 091140Z 33006KT M06/M09 A303 RMK A01 T10641087  RH  084%=      5-min Rain = 0
KAM1 091141Z 33005KT M06/M09 A303 RMK A01 T10641086  RH  085%=      5-min Rain = 0
KAM1 091142Z 33005KT M06/M09 A303 RMK A01 T10641086  RH  085%=      5-min Rain = 0
KAM1 091143Z 32004KT M07/M09 A303 RMK A01 T10651086  RH  085%=      5-min Rain = 0
KAM1 091144Z 32005KT M07/M09 A303 RMK A01 T10651087  RH  085%=      5-min Rain = 0
KAM1 091145Z 32005KT M07/M09 A303 RMK A01 T10661087  RH  085%=      5-min Rain = 0
KAM1 091146Z 32005KT M07/M08 A303 RMK A01 T10651084  RH  086%=      5-min Rain = 0
KAM1 091147Z 32005KT M06/M08 A303 RMK A01 T10631082  RH  087%=      5-min Rain = 0
KAM1 091148Z 32005KT M06/M08 A303 RMK A01 T10621081  RH  086%=      5-min Rain = 0
KAM1 091149Z 31005KT M06/M08 A303 RMK A01 T10621082  RH  086%=      5-min Rain = 0
KAM1 091150Z 32005KT M06/M08 A303 RMK A01 T10621083  RH  085%=      5-min Rain = 0
KAM1 091151Z 32006KT M06/M08 A303 RMK A01 T10621083  RH  085%=      5-min Rain = 0
KAM1 091152Z 32006KT M06/M08 A303 RMK A01 T10611083  RH  085%=      5-min Rain = 0
KAM1 091153Z 32005KT M06/M08 A303 RMK A01 T10621084  RH  084%=      5-min Rain = 0
KAM1 091154Z 32005KT M06/M09 A303 RMK A01 T10631086  RH  084%=      5-min Rain = 0
KAM1 091155Z 32005KT M06/M09 A303 RMK A01 T10631087  RH  084%=      5-min Rain = 0
KAM1 091156Z 32005KT M06/M09 A303 RMK A01 T10641086  RH  084%=      5-min Rain = 0
KAM1 091157Z 32005KT M06/M09 A303 RMK A01 T10641086  RH  084%=      5-min Rain = 0
KAM1 091158Z 33005KT M06/M09 A303 RMK A01 T10641087  RH  084%=      5-min Rain = 0
KAM1 091159Z 33005KT M07/M09 A303 RMK A01 T10651087  RH  084%=      5-min Rain = 0
KAM1 091200Z 33004KT M07/M09 A303 RMK A01 T10651087  RH  084%=      5-min Rain = 0
KAM1 091201Z 33004KT M07/M09 A303 RMK A01 T10651087  RH  084%=      5-min Rain = 0
KAM1 091202Z 32004KT M07/M09 A303 RMK A01 T10651088  RH  084%=      5-min Rain = 0
KAM1 091203Z 32004KT M07/M09 A303 RMK A01 T10671090  RH  083%=      5-min Rain = 0
KAM1 091204Z 32004KT M07/M09 A303 RMK A01 T10671090  RH  084%=      5-min Rain = 0
KAM1 091205Z 32004KT M07/M09 A303 RMK A01 T10671087  RH  086%=      5-min Rain = 0
KAM1 091206Z 32004KT M07/M09 A303 RMK A01 T10651085  RH  086%=      5-min Rain = 0
KAM1 091207Z 32004KT M06/M08 A303 RMK A01 T10641084  RH  086%=      5-min Rain = 0
KAM1 091208Z 32004KT M06/M08 A303 RMK A01 T10621081  RH  086%=      5-min Rain = 0
KAM1 091209Z 32004KT M06/M08 A303 RMK A01 T10611082  RH  085%=      5-min Rain = 0
KAM1 091210Z 32004KT M06/M08 A3031 RMK A01 T10621083  RH  085%=      5-min Rain = 0
KAM1 091211Z 32004KT M06/M08 A3031 RMK A01 T10621083  RH  085%=      5-min Rain = 0
KAM1 091212Z 32004KT M06/M08 A3031 RMK A01 T10611083  RH  085%=      5-min Rain = 0
KAM1 091213Z 32004KT M06/M09 A3031 RMK A01 T10621085  RH  084%=      5-min Rain = 0
KAM1 091214Z 32004KT M06/M09 A3031 RMK A01 T10641088  RH  083%=      5-min Rain = 0
KAM1 091215Z 32005KT M07/M09 A3031 RMK A01 T10661090  RH  083%=      5-min Rain = 0
KAM1 091216Z 32005KT M07/M09 A3031 RMK A01 T10661089  RH  084%=      5-min Rain = 0
KAM1 091217Z 33005KT M07/M09 A3031 RMK A01 T10661088  RH  085%=      5-min Rain = 0
KAM1 091218Z 32005KT M07/M09 A3031 RMK A01 T10671088  RH  085%=      5-min Rain = 0
KAM1 091219Z 32005KT M07/M09 A3031 RMK A01 T10681090  RH  084%=      5-min Rain = 0
KAM1 091220Z 32005KT M07/M09 A3031 RMK A01 T10701092  RH  084%=      5-min Rain = 0
KAM1 091221Z 33005KT M07/M09 A3031 RMK A01 T10711093  RH  084%=      5-min Rain = 0
KAM1 091222Z 33005KT M07/M09 A3031 RMK A01 T10721094  RH  084%=      5-min Rain = 0
KAM1 091223Z 33006KT M07/M10 A3031 RMK A01 T10731095  RH  084%=      5-min Rain = 0
KAM1 091224Z 33006KT M07/M10 A3031 RMK A01 T10741095  RH  085%=      5-min Rain = 0
KAM1 091225Z 33006KT M07/M10 A3031 RMK A01 T10741095  RH  085%=      5-min Rain = 0
KAM1 091226Z 33006KT M07/M09 A3031 RMK A01 T10741094  RH  086%=      5-min Rain = 0
KAM1 091227Z 33006KT M07/M09 A3031 RMK A01 T10741093  RH  086%=      5-min Rain = 0
KAM1 091228Z 33006KT M07/M09 A3031 RMK A01 T10731093  RH  086%=      5-min Rain = 0
KAM1 091229Z 33006KT M07/M09 A3031 RMK A01 T10731092  RH  086%=      5-min Rain = 0
KAM1 091230Z 33006KT M07/M09 A3031 RMK A01 T10721092  RH  086%=      5-min Rain = 0
KAM1 091231Z 33007KT M07/M09 A3031 RMK A01 T10721093  RH  085%=      5-min Rain = 0
KAM1 091232Z 33006KT M07/M09 A3031 RMK A01 T10721093  RH  085%=      5-min Rain = 0
KAM1 091233Z 33006KT M07/M09 A3031 RMK A01 T10721093  RH  085%=      5-min Rain = 0
KAM1 091234Z 33006KT M07/M09 A3031 RMK A01 T10711092  RH  085%=      5-min Rain = 0
KAM1 091235Z 33006KT M07/M09 A3031 RMK A01 T10701090  RH  086%=      5-min Rain = 0
KAM1 091236Z 33006KT M07/M09 A3031 RMK A01 T10691089  RH  086%=      5-min Rain = 0
KAM1 091237Z 33006KT M07/M09 A3031 RMK A01 T10681089  RH  085%=      5-min Rain = 0
KAM1 091238Z 33007KT M07/M09 A3031 RMK A01 T10671090  RH  084%=      5-min Rain = 0
KAM1 091239Z 33007KT M07/M09 A3031 RMK A01 T10681091  RH  084%=      5-min Rain = 0
KAM1 091240Z 33007KT M07/M09 A3031 RMK A01 T10681092  RH  083%=      5-min Rain = 0
KAM1 091241Z 33006KT M07/M09 A3031 RMK A01 T10691094  RH  082%=      5-min Rain = 0
KAM1 091242Z 33007KT M07/M10 A3031 RMK A01 T10701095  RH  082%=      5-min Rain = 0
KAM1 091243Z 33007KT M07/M10 A3031 RMK A01 T10711096  RH  083%=      5-min Rain = 0
KAM1 091244Z 33007KT M07/M10 A3031 RMK A01 T10711096  RH  083%=      5-min Rain = 0
KAM1 091245Z 33007KT M07/M09 A3031 RMK A01 T10711094  RH  084%=      5-min Rain = 0
KAM1 091246Z 33007KT M07/M09 A3031 RMK A01 T10711093  RH  084%=      5-min Rain = 0
KAM1 091247Z 33007KT M07/M09 A3031 RMK A01 T10701092  RH  084%=      5-min Rain = 0
KAM1 091248Z 33007KT M07/M09 A3032 RMK A01 T10691091  RH  084%=      5-min Rain = 0
KAM1 091249Z 33008KT M07/M09 A3032 RMK A01 T10681090  RH  084%=      5-min Rain = 0
KAM1 091250Z 33007KT M07/M09 A3032 RMK A01 T10681090  RH  084%=      5-min Rain = 0
KAM1 091251Z 33007KT M07/M09 A3032 RMK A01 T10681091  RH  084%=      5-min Rain = 0
KAM1 091252Z 32007KT M07/M09 A3032 RMK A01 T10681091  RH  084%=      5-min Rain = 0
KAM1 091253Z 32007KT M07/M09 A3032 RMK A01 T10681090  RH  084%=      5-min Rain = 0
KAM1 091254Z 32007KT M07/M09 A3032 RMK A01 T10671089  RH  084%=      5-min Rain = 0
KAM1 091255Z 33007KT M07/M09 A3032 RMK A01 T10661089  RH  084%=      5-min Rain = 0
KAM1 091256Z 32007KT M07/M09 A3032 RMK A01 T10661088  RH  084%=      5-min Rain = 0
KAM1 091257Z 33007KT M07/M09 A3032 RMK A01 T10651088  RH  084%=      5-min Rain = 0
KAM1 091258Z 33007KT M07/M09 A3032 RMK A01 T10651088  RH  084%=      5-min Rain = 0
KAM1 091259Z 33007KT M06/M09 A3032 RMK A01 T10641088  RH  083%=      5-min Rain = 0
KAM1 091300Z 33007KT M06/M09 A3032 RMK A01 T10641088  RH  083%=      5-min Rain = 0
KAM1 091301Z 32007KT M06/M09 A3032 RMK A01 T10641088  RH  083%=      5-min Rain = 0
KAM1 091302Z 32007KT M06/M09 A3032 RMK A01 T10641089  RH  083%=      5-min Rain = 0
KAM1 091303Z 32007KT M06/M09 A3032 RMK A01 T10641089  RH  083%=      5-min Rain = 0
KAM1 091304Z 32007KT M06/M09 A3032 RMK A01 T10641089  RH  083%=      5-min Rain = 0
KAM1 091305Z 32007KT M06/M09 A3032 RMK A01 T10641089  RH  083%=      5-min Rain = 0
KAM1 091306Z 32007KT M07/M09 A3032 RMK A01 T10651089  RH  083%=      5-min Rain = 0
KAM1 091307Z 32007KT M07/M09 A3032 RMK A01 T10651090  RH  083%=      5-min Rain = 0
KAM1 091308Z 32007KT M07/M09 A3032 RMK A01 T10651089  RH  083%=      5-min Rain = 0
KAM1 091309Z 32007KT M07/M09 A3033 RMK A01 T10651089  RH  083%=      5-min Rain = 0
KAM1 091310Z 32007KT M07/M09 A3033 RMK A01 T10651089  RH  083%=      5-min Rain = 0
KAM1 091311Z 32007KT M07/M09 A3033 RMK A01 T10651089  RH  083%=      5-min Rain = 0
KAM1 091312Z 32007KT M07/M09 A3033 RMK A01 T10661090  RH  083%=      5-min Rain = 0
KAM1 091313Z 32007KT M07/M09 A3033 RMK A01 T10661090  RH  083%=      5-min Rain = 0
KAM1 091314Z 32007KT M07/M09 A3033 RMK A01 T10671091  RH  083%=      5-min Rain = 0
KAM1 091315Z 32007KT M07/M09 A3033 RMK A01 T10671091  RH  083%=      5-min Rain = 0
KAM1 091316Z 33007KT M07/M09 A3033 RMK A01 T10681092  RH  083%=      5-min Rain = 0
KAM1 091317Z 33007KT M07/M09 A3033 RMK A01 T10681092  RH  083%=      5-min Rain = 0
KAM1 091318Z 33007KT M07/M09 A3033 RMK A01 T10691092  RH  083%=      5-min Rain = 0
KAM1 091319Z 33007KT M07/M09 A3033 RMK A01 T10691093  RH  083%=      5-min Rain = 0
KAM1 091320Z 32007KT M07/M09 A3033 RMK A01 T10701094  RH  083%=      5-min Rain = 0
KAM1 091321Z 32007KT M07/M09 A3033 RMK A01 T10701094  RH  083%=      5-min Rain = 0
KAM1 091322Z 32007KT M07/M09 A3033 RMK A01 T10701094  RH  083%=      5-min Rain = 0
KAM1 091323Z 33007KT M07/M09 A3033 RMK A01 T10701094  RH  084%=      5-min Rain = 0
KAM1 091324Z 33007KT M07/M09 A3033 RMK A01 T10701093  RH  084%=      5-min Rain = 0
KAM1 091325Z 33007KT M07/M09 A3033 RMK A01 T10701093  RH  084%=      5-min Rain = 0
KAM1 091326Z 33007KT M07/M09 A3033 RMK A01 T10691092  RH  084%=      5-min Rain = 0
KAM1 091327Z 33007KT M07/M09 A3033 RMK A01 T10681092  RH  083%=      5-min Rain = 0
KAM1 091328Z 32007KT M07/M09 A3033 RMK A01 T10681091  RH  083%=      5-min Rain = 0
KAM1 091329Z 32007KT M07/M09 A3033 RMK A01 T10671091  RH  083%=      5-min Rain = 0
KAM1 091330Z 32007KT M07/M09 A3033 RMK A01 T10661090  RH  083%=      5-min Rain = 0
KAM1 091331Z 32007KT M07/M09 A3033 RMK A01 T10661090  RH  083%=      5-min Rain = 0
KAM1 091332Z 32007KT M07/M09 A3033 RMK A01 T10651090  RH  082%=      5-min Rain = 0
KAM1 091333Z 32006KT M07/M09 A3033 RMK A01 T10651090  RH  082%=      5-min Rain = 0
KAM1 091334Z 32006KT M07/M09 A3033 RMK A01 T10651090  RH  082%=      5-min Rain = 0
KAM1 091335Z 32007KT M07/M09 A3033 RMK A01 T10651090  RH  082%=      5-min Rain = 0
KAM1 091336Z 32007KT M07/M09 A3033 RMK A01 T10651091  RH  082%=      5-min Rain = 0
KAM1 091337Z 32007KT M07/M09 A3034 RMK A01 T10661092  RH  081%=      5-min Rain = 0
KAM1 091338Z 32007KT M07/M09 A3034 RMK A01 T10671094  RH  081%=      5-min Rain = 0
KAM1 091339Z 32007KT M07/M09 A3034 RMK A01 T10671094  RH  081%=      5-min Rain = 0
KAM1 091340Z 32007KT M07/M09 A3034 RMK A01 T10681094  RH  082%=      5-min Rain = 0
KAM1 091341Z 32006KT M07/M09 A3034 RMK A01 T10681093  RH  082%=      5-min Rain = 0
KAM1 091342Z 32006KT M07/M09 A3034 RMK A01 T10681093  RH  083%=      5-min Rain = 0
KAM1 091343Z 32006KT M07/M09 A3034 RMK A01 T10671091  RH  083%=      5-min Rain = 0
KAM1 091344Z 32006KT M07/M09 A3034 RMK A01 T10671091  RH  083%=      5-min Rain = 0
KAM1 091345Z 33006KT M07/M09 A3034 RMK A01 T10661090  RH  083%=      5-min Rain = 0
KAM1 091346Z 33006KT M07/M09 A3034 RMK A01 T10651090  RH  083%=      5-min Rain = 0
KAM1 091347Z 33006KT M07/M09 A3034 RMK A01 T10651090  RH  082%=      5-min Rain = 0
KAM1 091348Z 33006KT M07/M09 A3034 RMK A01 T10651091  RH  082%=      5-min Rain = 0
KAM1 091349Z 33007KT M07/M09 A3034 RMK A01 T10651092  RH  081%=      5-min Rain = 0
KAM1 091350Z 33007KT M07/M09 A3034 RMK A01 T10661093  RH  081%=      5-min Rain = 0
KAM1 091351Z 33007KT M07/M09 A3034 RMK A01 T10661093  RH  082%=      5-min Rain = 0
KAM1 091352Z 33007KT M07/M09 A3034 RMK A01 T10671093  RH  082%=      5-min Rain = 0
KAM1 091353Z 33007KT M07/M09 A3034 RMK A01 T10671093  RH  082%=      5-min Rain = 0
KAM1 091354Z 33007KT M07/M09 A3034 RMK A01 T10671093  RH  082%=      5-min Rain = 0
KAM1 091355Z 33006KT M07/M09 A3034 RMK A01 T10671093  RH  082%=      5-min Rain = 0
KAM1 091356Z 33006KT M07/M09 A3034 RMK A01 T10671093  RH  082%=      5-min Rain = 0
KAM1 091357Z 33006KT M07/M09 A3034 RMK A01 T10681093  RH  082%=      5-min Rain = 0
KAM1 091358Z 32006KT M07/M09 A3034 RMK A01 T10671092  RH  083%=      5-min Rain = 0
KAM1 091359Z 32006KT M07/M09 A3034 RMK A01 T10661091  RH  083%=      5-min Rain = 0
KAM1 091400Z 32006KT M07/M09 A3034 RMK A01 T10661090  RH  083%=      5-min Rain = 0
KAM1 091401Z 32007KT M07/M09 A3034 RMK A01 T10651089  RH  083%=      5-min Rain = 0
KAM1 091402Z 32006KT M06/M09 A3034 RMK A01 T10641088  RH  083%=      5-min Rain = 0
KAM1 091403Z 32006KT M06/M09 A3034 RMK A01 T10621087  RH  083%=      5-min Rain = 0
KAM1 091404Z 32006KT M06/M09 A3034 RMK A01 T10611086  RH  082%=      5-min Rain = 0
KAM1 091405Z 32006KT M06/M09 A3034 RMK A01 T10611086  RH  082%=      5-min Rain = 0
KAM1 091406Z 32006KT M06/M09 A3034 RMK A01 T10601087  RH  082%=      5-min Rain = 0
KAM1 091407Z 32006KT M06/M09 A3034 RMK A01 T10601086  RH  081%=      5-min Rain = 0
KAM1 091408Z 32006KT M06/M09 A3034 RMK A01 T10601087  RH  081%=      5-min Rain = 0
KAM1 091409Z 31006KT M06/M09 A3034 RMK A01 T10601087  RH  081%=      5-min Rain = 0
KAM1 091410Z 31006KT M06/M09 A3034 RMK A01 T10611088  RH  081%=      5-min Rain = 0
KAM1 091411Z 31006KT M06/M09 A3034 RMK A01 T10611088  RH  081%=      5-min Rain = 0
KAM1 091412Z 32005KT M06/M09 A3034 RMK A01 T10611089  RH  081%=      5-min Rain = 0
KAM1 091413Z 31006KT M06/M09 A3034 RMK A01 T10611088  RH  081%=      5-min Rain = 0
KAM1 091414Z 31006KT M06/M09 A3034 RMK A01 T10611087  RH  082%=      5-min Rain = 0
KAM1 091415Z 31006KT M06/M09 A3034 RMK A01 T10601086  RH  082%=      5-min Rain = 0
KAM1 091416Z 32006KT M06/M09 A3034 RMK A01 T10601085  RH  082%=      5-min Rain = 0
KAM1 091417Z 32006KT M06/M08 A3034 RMK A01 T10591083  RH  083%=      5-min Rain = 0
KAM1 091418Z 32006KT M06/M08 A3034 RMK A01 T10581082  RH  083%=      5-min Rain = 0
KAM1 091419Z 32005KT M06/M08 A3034 RMK A01 T10571080  RH  083%=      5-min Rain = 0
KAM1 091420Z 32005KT M06/M08 A3034 RMK A01 T10561079  RH  083%=      5-min Rain = 0
KAM1 091421Z 32005KT M05/M08 A3034 RMK A01 T10541078  RH  083%=      5-min Rain = 0
KAM1 091422Z 31005KT M05/M08 A3034 RMK A01 T10531077  RH  083%=      5-min Rain = 0
KAM1 091423Z 31005KT M05/M08 A3034 RMK A01 T10521076  RH  083%=      5-min Rain = 0
KAM1 091424Z 31005KT M05/M08 A3034 RMK A01 T10511075  RH  083%=      5-min Rain = 0
KAM1 091425Z 31005KT M05/M07 A3035 RMK A01 T10501074  RH  083%=      5-min Rain = 0
KAM1 091426Z 31005KT M05/M07 A3035 RMK A01 T10491074  RH  083%=      5-min Rain = 0
KAM1 091427Z 31005KT M05/M07 A3035 RMK A01 T10481073  RH  082%=      5-min Rain = 0
KAM1 091428Z 31005KT M05/M07 A3035 RMK A01 T10471072  RH  082%=      5-min Rain = 0
KAM1 091429Z 31005KT M05/M07 A3035 RMK A01 T10451071  RH  083%=      5-min Rain = 0
KAM1 091430Z 31005KT M05/M07 A3035 RMK A01 T10451070  RH  082%=      5-min Rain = 0
KAM1 091431Z 31005KT M04/M07 A3035 RMK A01 T10441069  RH  082%=      5-min Rain = 0
KAM1 091432Z 31005KT M04/M07 A3035 RMK A01 T10431068  RH  082%=      5-min Rain = 0
KAM1 091433Z 31005KT M04/M07 A3035 RMK A01 T10421068  RH  082%=      5-min Rain = 0
KAM1 091434Z 31005KT M04/M07 A3035 RMK A01 T10411067  RH  082%=      5-min Rain = 0
KAM1 091435Z 31004KT M04/M07 A3035 RMK A01 T10401066  RH  082%=      5-min Rain = 0
KAM1 091436Z 31004KT M04/M07 A3035 RMK A01 T10391065  RH  082%=      5-min Rain = 0
KAM1 091437Z 31003KT M04/M06 A3035 RMK A01 T10381064  RH  082%=      5-min Rain = 0
KAM1 091438Z 31004KT M04/M06 A3035 RMK A01 T10371063  RH  082%=      5-min Rain = 0
KAM1 091439Z 31004KT M04/M06 A3035 RMK A01 T10361063  RH  081%=      5-min Rain = 0
KAM1 091440Z 31004KT M03/M06 A3035 RMK A01 T10341062  RH  081%=      5-min Rain = 0
KAM1 091441Z 31004KT M03/M06 A3035 RMK A01 T10331062  RH  080%=      5-min Rain = 0
KAM1 091442Z 32003KT M03/M06 A3035 RMK A01 T10321062  RH  080%=      5-min Rain = 0
KAM1 091443Z 32003KT M03/M06 A3035 RMK A01 T10321061  RH  080%=      5-min Rain = 0
KAM1 091444Z 32003KT M03/M06 A3035 RMK A01 T10311060  RH  080%=      5-min Rain = 0
KAM1 091445Z 32003KT M03/M06 A3035 RMK A01 T10291059  RH  080%=      5-min Rain = 0
KAM1 091446Z 32004KT M03/M06 A3035 RMK A01 T10291060  RH  079%=      5-min Rain = 0
KAM1 091447Z 32003KT M03/M06 A3035 RMK A01 T10281062  RH  077%=      5-min Rain = 0
KAM1 091448Z 32003KT M03/M06 A3035 RMK A01 T10271061  RH  078%=      5-min Rain = 0
KAM1 091449Z 32004KT M03/M06 A3035 RMK A01 T10261060  RH  078%=      5-min Rain = 0
KAM1 091450Z 32004KT M03/M06 A3035 RMK A01 T10261062  RH  077%=      5-min Rain = 0
KAM1 091451Z 32003KT M03/M06 A3035 RMK A01 T10251061  RH  077%=      5-min Rain = 0
KAM1 091452Z 33004KT M03/M06 A3035 RMK A01 T10251059  RH  077%=      5-min Rain = 0
KAM1 091453Z 33004KT M02/M06 A3035 RMK A01 T10241059  RH  077%=      5-min Rain = 0
KAM1 091454Z 33003KT M02/M06 A3035 RMK A01 T10231059  RH  077%=      5-min Rain = 0
KAM1 091455Z 33004KT M02/M06 A3035 RMK A01 T10221058  RH  077%=      5-min Rain = 0
KAM1 091456Z 33004KT M02/M06 A3035 RMK A01 T10221059  RH  075%=      5-min Rain = 0
KAM1 091457Z 33004KT M02/M06 A3035 RMK A01 T10211060  RH  075%=      5-min Rain = 0
KAM1 091458Z 32003KT M02/M06 A3035 RMK A01 T10211059  RH  075%=      5-min Rain = 0
KAM1 091459Z 32003KT M02/M06 A3035 RMK A01 T10191056  RH  076%=      5-min Rain = 0
KAM1 091500Z 32003KT M02/M06 A3035 RMK A01 T10181057  RH  075%=      5-min Rain = 0
KAM1 091501Z 33004KT M02/M06 A3035 RMK A01 T10181058  RH  074%=      5-min Rain = 0
KAM1 091502Z 32003KT M02/M06 A3035 RMK A01 T10181058  RH  074%=      5-min Rain = 0
KAM1 091503Z 31003KT M02/M06 A3035 RMK A01 T10171055  RH  075%=      5-min Rain = 0
KAM1 091504Z 32003KT M02/M05 A3035 RMK A01 T10161051  RH  077%=      5-min Rain = 0
KAM1 091505Z 31003KT M02/M05 A3035 RMK A01 T10151050  RH  077%=      5-min Rain = 0
KAM1 091506Z 31004KT M01/M05 A3035 RMK A01 T10131049  RH  077%=      5-min Rain = 0
KAM1 091507Z 31005KT M01/M05 A3035 RMK A01 T10131050  RH  076%=      5-min Rain = 0
KAM1 091508Z 32005KT M01/M05 A3035 RMK A01 T10121053  RH  074%=      5-min Rain = 0
KAM1 091509Z 31004KT M01/M06 A3035 RMK A01 T10121055  RH  073%=      5-min Rain = 0
KAM1 091510Z 31004KT M01/M05 A3036 RMK A01 T10131054  RH  074%=      5-min Rain = 0
KAM1 091511Z 31004KT M01/M05 A3036 RMK A01 T10121053  RH  074%=      5-min Rain = 0
KAM1 091512Z 31004KT M01/M05 A3036 RMK A01 T10121053  RH  074%=      5-min Rain = 0
KAM1 091513Z 31004KT M01/M05 A3036 RMK A01 T10121053  RH  073%=      5-min Rain = 0
KAM1 091514Z 32004KT M01/M05 A3036 RMK A01 T10101050  RH  075%=      5-min Rain = 0
KAM1 091515Z 31003KT M01/M05 A3036 RMK A01 T10101052  RH  073%=      5-min Rain = 0
KAM1 091516Z 31004KT M01/M05 A3036 RMK A01 T10091050  RH  074%=      5-min Rain = 0
KAM1 091517Z 31004KT M01/M05 A3036 RMK A01 T10091050  RH  074%=      5-min Rain = 0
KAM1 091518Z 32005KT M01/M05 A3036 RMK A01 T10081051  RH  073%=      5-min Rain = 0
KAM1 091519Z 32005KT M01/M05 A3036 RMK A01 T10071051  RH  072%=      5-min Rain = 0
KAM1 091520Z 32005KT M01/M05 A3036 RMK A01 T10071050  RH  072%=      5-min Rain = 0
KAM1 091521Z 32005KT M01/M05 A3036 RMK A01 T10061052  RH  071%=      5-min Rain = 0
KAM1 091522Z 32004KT M01/M05 A3036 RMK A01 T10051052  RH  071%=      5-min Rain = 0
KAM1 091523Z 31004KT M00/M05 A3036 RMK A01 T10041050  RH  071%=      5-min Rain = 0
KAM1 091524Z 32005KT M00/M05 A3036 RMK A01 T10031050  RH  071%=      5-min Rain = 0
KAM1 091525Z 32005KT M00/M05 A3036 RMK A01 T10031052  RH  069%=      5-min Rain = 0
KAM1 091526Z 31004KT M00/M05 A3036 RMK A01 T10021053  RH  069%=      5-min Rain = 0
KAM1 091527Z 31003KT M00/M05 A3036 RMK A01 T10021051  RH  069%=      5-min Rain = 0
KAM1 091528Z 31005KT M00/M05 A3036 RMK A01 T10011051  RH  069%=      5-min Rain = 0
KAM1 091529Z 31005KT 00/05 A3036 RMK A01 T00000-51  RH  069%=      5-min Rain = 0
KAM1 091530Z 32005KT 00/M05 A3036 RMK A01 T00011050  RH  068%=      5-min Rain = 0
KAM1 091531Z 33004KT 00/M05 A3036 RMK A01 T00021051  RH  067%=      5-min Rain = 0
KAM1 091532Z 31004KT 00/M05 A3036 RMK A01 T00031048  RH  069%=      5-min Rain = 0
KAM1 091533Z 31005KT 00/M05 A3036 RMK A01 T00041048  RH  068%=      5-min Rain = 0
KAM1 091534Z 31004KT 01/M05 A3036 RMK A01 T00051046  RH  068%=      5-min Rain = 0
KAM1 091535Z 31005KT 01/M05 A3036 RMK A01 T00061048  RH  067%=      5-min Rain = 0
KAM1 091536Z 32006KT 01/M05 A3036 RMK A01 T00071049  RH  066%=      5-min Rain = 0
KAM1 091537Z 31005KT 01/M05 A3036 RMK A01 T00071049  RH  066%=      5-min Rain = 0
KAM1 091538Z 31006KT 01/M05 A3036 RMK A01 T00081049  RH  066%=      5-min Rain = 0
KAM1 091539Z 32006KT 01/M05 A3036 RMK A01 T00091049  RH  065%=      5-min Rain = 0
KAM1 091540Z 31005KT 01/M05 A3036 RMK A01 T00091052  RH  064%=      5-min Rain = 0
KAM1 091541Z 32006KT 01/M05 A3036 RMK A01 T00091052  RH  063%=      5-min Rain = 0
KAM1 091542Z 31006KT 01/M05 A3036 RMK A01 T00091051  RH  064%=      5-min Rain = 0
KAM1 091543Z 31007KT 01/M05 A3036 RMK A01 T00111049  RH  064%=      5-min Rain = 0
KAM1 091544Z 31006KT 01/M05 A3036 RMK A01 T00111053  RH  062%=      5-min Rain = 0
KAM1 091545Z 31005KT 01/M05 A3036 RMK A01 T00121052  RH  062%=      5-min Rain = 0
KAM1 091546Z 31007KT 01/M05 A3036 RMK A01 T00131053  RH  062%=      5-min Rain = 0
KAM1 091547Z 31005KT 01/M06 A3037 RMK A01 T00131055  RH  061%=      5-min Rain = 0
KAM1 091548Z 32005KT 01/M05 A3037 RMK A01 T00141053  RH  061%=      5-min Rain = 0
KAM1 091549Z 32007KT 02/M05 A3037 RMK A01 T00151054  RH  060%=      5-min Rain = 0
KAM1 091550Z 32006KT 02/M06 A3037 RMK A01 T00151058  RH  059%=      5-min Rain = 0
KAM1 091551Z 33006KT 02/M06 A3037 RMK A01 T00151057  RH  059%=      5-min Rain = 0
KAM1 091552Z 33005KT 02/M06 A3037 RMK A01 T00161055  RH  059%=      5-min Rain = 0
KAM1 091553Z 33005KT 02/M05 A3037 RMK A01 T00161054  RH  059%=      5-min Rain = 0
KAM1 091554Z 34004KT 02/M06 A3037 RMK A01 T00161055  RH  059%=      5-min Rain = 0
KAM1 091555Z 32006KT 02/M05 A3037 RMK A01 T00171054  RH  059%=      5-min Rain = 0
KAM1 091556Z 32007KT 02/M06 A3037 RMK A01 T00181055  RH  058%=      5-min Rain = 0
KAM1 091557Z 33006KT 02/M06 A3037 RMK A01 T00191056  RH  058%=      5-min Rain = 0
KAM1 091558Z 33006KT 02/M06 A3037 RMK A01 T00191058  RH  057%=      5-min Rain = 0
KAM1 091559Z 33006KT 02/M06 A3037 RMK A01 T00191056  RH  057%=      5-min Rain = 0
KAM1 091600Z 34005KT 02/M06 A3037 RMK A01 T00201056  RH  057%=      5-min Rain = 0
KAM1 091601Z 33005KT 02/M06 A3037 RMK A01 T00201056  RH  057%=      5-min Rain = 0
KAM1 091602Z 32005KT 02/M06 A3037 RMK A01 T00211056  RH  057%=      5-min Rain = 0
KAM1 091603Z 31006KT 02/M06 A3037 RMK A01 T00211055  RH  057%=      5-min Rain = 0
KAM1 091604Z 32005KT 02/M06 A3038 RMK A01 T00221056  RH  056%=      5-min Rain = 0
KAM1 091605Z 31006KT 02/M06 A3038 RMK A01 T00231055  RH  056%=      5-min Rain = 0
KAM1 091606Z 31006KT 02/M06 A3038 RMK A01 T00241055  RH  056%=      5-min Rain = 0
KAM1 091607Z 31005KT 02/M06 A3038 RMK A01 T00241058  RH  055%=      5-min Rain = 0
KAM1 091608Z 31007KT 02/M06 A3038 RMK A01 T00241057  RH  055%=      5-min Rain = 0
KAM1 091609Z 32007KT 03/M06 A3038 RMK A01 T00251057  RH  055%=      5-min Rain = 0
KAM1 091610Z 33006KT 03/M06 A3038 RMK A01 T00261057  RH  054%=      5-min Rain = 0
KAM1 091611Z 32007KT 03/M06 A3038 RMK A01 T00251059  RH  054%=      5-min Rain = 0
KAM1 091612Z 32006KT 03/M06 A3038 RMK A01 T00251058  RH  054%=      5-min Rain = 0
KAM1 091613Z 33008KT 03/M06 A3038 RMK A01 T00261056  RH  055%=      5-min Rain = 0
KAM1 091614Z 33007KT 03/M06 A3038 RMK A01 T00271057  RH  054%=      5-min Rain = 0
KAM1 091615Z 33005KT 03/M06 A3038 RMK A01 T00251060  RH  053%=      5-min Rain = 0
KAM1 091616Z 32006KT 03/M06 A3038 RMK A01 T00251057  RH  055%=      5-min Rain = 0
KAM1 091617Z 32006KT 03/M06 A3038 RMK A01 T00281055  RH  055%=      5-min Rain = 0
KAM1 091618Z 34006KT 03/M06 A3038 RMK A01 T00281058  RH  053%=      5-min Rain = 0
KAM1 091619Z 32007KT 03/M06 A3038 RMK A01 T00271058  RH  053%=      5-min Rain = 0
KAM1 091620Z 32006KT 03/M06 A3038 RMK A01 T00271058  RH  053%=      5-min Rain = 0
KAM1 091621Z 32007KT 03/M06 A3038 RMK A01 T00281057  RH  053%=      5-min Rain = 0
KAM1 091622Z 31006KT 03/M06 A3038 RMK A01 T00281058  RH  053%=      5-min Rain = 0
KAM1 091623Z 33006KT 03/M06 A3038 RMK A01 T00291056  RH  053%=      5-min Rain = 0
KAM1 091624Z 33005KT 03/M06 A3038 RMK A01 T00301058  RH  053%=      5-min Rain = 0
KAM1 091625Z 32005KT 03/M06 A3038 RMK A01 T00291059  RH  052%=      5-min Rain = 0
KAM1 091626Z 32006KT 03/M06 A3038 RMK A01 T00291059  RH  052%=      5-min Rain = 0
KAM1 091627Z 33005KT 03/M06 A3038 RMK A01 T00311055  RH  053%=      5-min Rain = 0
KAM1 091628Z 33006KT 03/M06 A3038 RMK A01 T00331056  RH  052%=      5-min Rain = 0
KAM1 091629Z 34005KT 03/M06 A3038 RMK A01 T00341055  RH  052%=      5-min Rain = 0
KAM1 091630Z 33005KT 03/M06 A3038 RMK A01 T00341057  RH  051%=      5-min Rain = 0
KAM1 091631Z 33005KT 03/M06 A3038 RMK A01 T00341057  RH  051%=      5-min Rain = 0
KAM1 091632Z 35004KT 03/M06 A3038 RMK A01 T00341058  RH  051%=      5-min Rain = 0
KAM1 091633Z 35004KT 03/M06 A3038 RMK A01 T00331058  RH  051%=      5-min Rain = 0
KAM1 091634Z 33004KT 03/M06 A3038 RMK A01 T00331058  RH  051%=      5-min Rain = 0
KAM1 091635Z 34007KT 03/M06 A3038 RMK A01 T00341056  RH  052%=      5-min Rain = 0
KAM1 091636Z 35006KT 04/M06 A3038 RMK A01 T00351057  RH  051%=      5-min Rain = 0
KAM1 091637Z 01005KT 04/M06 A3038 RMK A01 T00351057  RH  051%=      5-min Rain = 0
KAM1 091638Z 35005KT 04/M06 A3038 RMK A01 T00361058  RH  050%=      5-min Rain = 0
KAM1 091639Z 34005KT 04/M06 A3038 RMK A01 T00361058  RH  050%=      5-min Rain = 0
KAM1 091640Z 34004KT 04/M06 A3038 RMK A01 T00361058  RH  050%=      5-min Rain = 0
KAM1 091641Z 36006KT 04/M06 A3038 RMK A01 T00381055  RH  051%=      5-min Rain = 0
KAM1 091642Z 35006KT 04/M06 A3038 RMK A01 T00391056  RH  050%=      5-min Rain = 0
KAM1 091643Z 33005KT 04/M06 A3038 RMK A01 T00391056  RH  050%=      5-min Rain = 0
KAM1 091644Z 33006KT 04/M06 A3038 RMK A01 T00401056  RH  050%=      5-min Rain = 0
KAM1 091645Z 33005KT 04/M06 A3038 RMK A01 T00401057  RH  049%=      5-min Rain = 0
KAM1 091646Z 33006KT 04/M06 A3038 RMK A01 T00401056  RH  050%=      5-min Rain = 0
KAM1 091647Z 33006KT 04/M05 A3038 RMK A01 T00421054  RH  050%=      5-min Rain = 0
KAM1 091648Z 34005KT 04/M05 A3038 RMK A01 T00431053  RH  050%=      5-min Rain = 0
KAM1 091649Z 31006KT 05/M05 A3038 RMK A01 T00451052  RH  049%=      5-min Rain = 0
KAM1 091650Z 33006KT 05/M05 A3038 RMK A01 T00461054  RH  048%=      5-min Rain = 0
KAM1 091651Z 35006KT 05/M06 A3038 RMK A01 T00451055  RH  048%=      5-min Rain = 0
KAM1 091652Z 34007KT 04/M06 A3038 RMK A01 T00431057  RH  048%=      5-min Rain = 0
KAM1 091653Z 33006KT 04/M06 A3038 RMK A01 T00431056  RH  048%=      5-min Rain = 0
KAM1 091654Z 33007KT 04/M06 A3038 RMK A01 T00431055  RH  049%=      5-min Rain = 0
KAM1 091655Z 34007KT 04/M06 A3038 RMK A01 T00441055  RH  049%=      5-min Rain = 0
KAM1 091656Z 34006KT 05/M05 A3038 RMK A01 T00451054  RH  048%=      5-min Rain = 0
KAM1 091657Z 33006KT 05/M05 A3038 RMK A01 T00461053  RH  049%=      5-min Rain = 0
KAM1 091658Z 34005KT 05/M05 A3038 RMK A01 T00481051  RH  049%=      5-min Rain = 0
KAM1 091659Z 34005KT 05/M05 A3038 RMK A01 T00511050  RH  048%=      5-min Rain = 0
KAM1 091700Z 34007KT 05/M05 A3038 RMK A01 T00511051  RH  048%=      5-min Rain = 0
KAM1 091701Z 34005KT 05/M05 A3038 RMK A01 T00511051  RH  048%=      5-min Rain = 0
KAM1 091702Z 36007KT 05/M05 A3038 RMK A01 T00511051  RH  048%=      5-min Rain = 0
KAM1 091703Z 36007KT 05/M05 A3038 RMK A01 T00501052  RH  048%=      5-min Rain = 0
KAM1 091704Z 36006KT 05/M05 A3038 RMK A01 T00491053  RH  048%=      5-min Rain = 0
KAM1 091705Z 35006KT 05/M05 A3037 RMK A01 T00471054  RH  048%=      5-min Rain = 0
KAM1 091706Z 35005KT 05/M05 A3037 RMK A01 T00461054  RH  048%=      5-min Rain = 0
KAM1 091707Z 01006KT 05/M05 A3037 RMK A01 T00461052  RH  049%=      5-min Rain = 0
KAM1 091708Z 01005KT 05/M05 A3037 RMK A01 T00481051  RH  049%=      5-min Rain = 0
KAM1 091709Z 35005KT 05/M05 A3037 RMK A01 T00481052  RH  048%=      5-min Rain = 0
KAM1 091710Z 34008KT 05/M05 A3037 RMK A01 T00481051  RH  049%=      5-min Rain = 0
KAM1 091711Z 34005KT 05/M05 A3037 RMK A01 T00481053  RH  048%=      5-min Rain = 0
KAM1 091712Z 35006KT 05/M05 A3037 RMK A01 T00471052  RH  049%=      5-min Rain = 0
KAM1 091713Z 34006KT 05/M05 A3037 RMK A01 T00481051  RH  048%=      5-min Rain = 0
KAM1 091714Z 33005KT 05/M05 A3038 RMK A01 T00471053  RH  048%=      5-min Rain = 0
KAM1 091715Z 34005KT 05/M05 A3038 RMK A01 T00461053  RH  049%=      5-min Rain = 0
KAM1 091716Z 36007KT 05/M05 A3038 RMK A01 T00481050  RH  049%=      5-min Rain = 0
KAM1 091717Z 35006KT 05/M05 A3038 RMK A01 T00491051  RH  048%=      5-min Rain = 0
KAM1 091718Z 36004KT 05/M05 A3038 RMK A01 T00471052  RH  048%=      5-min Rain = 0
KAM1 091719Z 33007KT 05/M05 A3038 RMK A01 T00481049  RH  049%=      5-min Rain = 0
KAM1 091720Z 33007KT 05/M05 A3038 RMK A01 T00511050  RH  048%=      5-min Rain = 0
KAM1 091721Z 35006KT 05/M05 A3038 RMK A01 T00501052  RH  048%=      5-min Rain = 0
KAM1 091722Z 01005KT 05/M05 A3038 RMK A01 T00491052  RH  048%=      5-min Rain = 0
KAM1 091723Z 35006KT 05/M05 A3038 RMK A01 T00481051  RH  048%=      5-min Rain = 0
KAM1 091724Z 34007KT 05/M05 A3037 RMK A01 T00491051  RH  048%=      5-min Rain = 0
KAM1 091725Z 33006KT 05/M05 A3037 RMK A01 T00501050  RH  048%=      5-min Rain = 0
KAM1 091726Z 34005KT 05/M05 A3037 RMK A01 T00501052  RH  048%=      5-min Rain = 0
KAM1 091727Z 33006KT 05/M05 A3037 RMK A01 T00501050  RH  048%=      5-min Rain = 0
KAM1 091728Z 34007KT 05/M05 A3037 RMK A01 T00511050  RH  048%=      5-min Rain = 0
KAM1 091729Z 35006KT 05/M05 A3037 RMK A01 T00521049  RH  048%=      5-min Rain = 0
KAM1 091730Z 04004KT 05/M05 A3037 RMK A01 T00531050  RH  047%=      5-min Rain = 0
KAM1 091731Z 00005KT 05/M05 A3037 RMK A01 T00511052  RH  047%=      5-min Rain = 0
KAM1 091732Z 35006KT 05/M05 A3037 RMK A01 T00501052  RH  048%=      5-min Rain = 0
KAM1 091733Z 36006KT 05/M05 A3037 RMK A01 T00501052  RH  048%=      5-min Rain = 0
KAM1 091734Z 00006KT 05/M05 A3037 RMK A01 T00501051  RH  048%=      5-min Rain = 0
KAM1 091735Z 03006KT 05/M05 A3037 RMK A01 T00501052  RH  048%=      5-min Rain = 0
KAM1 091736Z 03006KT 05/M05 A3037 RMK A01 T00501052  RH  048%=      5-min Rain = 0
KAM1 091737Z 03005KT 05/M05 A3037 RMK A01 T00501052  RH  048%=      5-min Rain = 0
KAM1 091738Z 36007KT 05/M05 A3037 RMK A01 T00501051  RH  048%=      5-min Rain = 0
KAM1 091739Z 01006KT 05/M05 A3037 RMK A01 T00521049  RH  048%=      5-min Rain = 0
KAM1 091740Z 36004KT 05/M05 A3037 RMK A01 T00521051  RH  047%=      5-min Rain = 0
KAM1 091741Z 00005KT 05/M05 A3037 RMK A01 T00531048  RH  048%=      5-min Rain = 0
KAM1 091742Z 34005KT 06/M05 A3037 RMK A01 T00561048  RH  047%=      5-min Rain = 0
KAM1 091743Z 35008KT 06/M05 A3037 RMK A01 T00571048  RH  047%=      5-min Rain = 0
KAM1 091744Z 35007KT 06/M05 A3037 RMK A01 T00561050  RH  046%=      5-min Rain = 0
KAM1 091745Z 35008KT 06/M05 A3037 RMK A01 T00561049  RH  047%=      5-min Rain = 0
KAM1 091746Z 36006KT 06/M05 A3037 RMK A01 T00561051  RH  046%=      5-min Rain = 0
KAM1 091747Z 00008KT 05/M05 A3037 RMK A01 T00541052  RH  046%=      5-min Rain = 0
KAM1 091748Z 34008KT 05/M05 A3037 RMK A01 T00541051  RH  046%=      5-min Rain = 0
KAM1 091749Z 35007KT 05/M05 A3037 RMK A01 T00541052  RH  046%=      5-min Rain = 0
KAM1 091750Z 01005KT 06/M05 A3037 RMK A01 T00551049  RH  047%=      5-min Rain = 0
KAM1 091751Z 03006KT 06/M05 A3037 RMK A01 T00571050  RH  046%=      5-min Rain = 0
KAM1 091752Z 01005KT 06/M05 A3037 RMK A01 T00551053  RH  046%=      5-min Rain = 0
KAM1 091753Z 35007KT 06/M05 A3037 RMK A01 T00551049  RH  047%=      5-min Rain = 0
KAM1 091754Z 35008KT 06/M05 A3037 RMK A01 T00581048  RH  046%=      5-min Rain = 0
KAM1 091755Z 35008KT 06/M05 A3037 RMK A01 T00591049  RH  046%=      5-min Rain = 0
KAM1 091756Z 34008KT 06/M05 A3037 RMK A01 T00581051  RH  045%=      5-min Rain = 0
KAM1 091757Z 33006KT 06/M05 A3037 RMK A01 T00571052  RH  045%=      5-min Rain = 0
KAM1 091758Z 34007KT 06/M05 A3037 RMK A01 T00571051  RH  046%=      5-min Rain = 0
KAM1 091759Z 34006KT 06/M05 A3037 RMK A01 T00591050  RH  046%=      5-min Rain = 0
KAM1 091800Z 01006KT 06/M05 A3037 RMK A01 T00601051  RH  045%=      5-min Rain = 0
KAM1 091801Z 01005KT 06/M05 A3037 RMK A01 T00601051  RH  045%=      5-min Rain = 0
KAM1 091802Z 35006KT 06/M05 A3037 RMK A01 T00621049  RH  045%=      5-min Rain = 0
KAM1 091803Z 34007KT 06/M05 A3037 RMK A01 T00621049  RH  045%=      5-min Rain = 0
KAM1 091804Z 36010KT 06/M05 A3037 RMK A01 T00621049  RH  045%=      5-min Rain = 0
KAM1 091805Z 00008KT 06/M05 A3037 RMK A01 T00621050  RH  044%=      5-min Rain = 0
KAM1 091806Z 02006KT 06/M05 A3037 RMK A01 T00611051  RH  044%=      5-min Rain = 0
KAM1 091807Z 01005KT 06/M05 A3036 RMK A01 T00601053  RH  044%=      5-min Rain = 0
KAM1 091808Z 00003KT 06/M05 A3036 RMK A01 T00581054  RH  044%=      5-min Rain = 0
KAM1 091809Z 00006KT 06/M05 A3036 RMK A01 T00581051  RH  045%=      5-min Rain = 0
KAM1 091810Z 00007KT 06/M05 A3036 RMK A01 T00611050  RH  045%=      5-min Rain = 0
KAM1 091811Z 35005KT 06/M05 A3036 RMK A01 T00601053  RH  044%=      5-min Rain = 0
KAM1 091812Z 01005KT 06/M05 A3036 RMK A01 T00591052  RH  045%=      5-min Rain = 0
KAM1 091813Z 00008KT 06/M05 A3036 RMK A01 T00591052  RH  045%=      5-min Rain = 0
KAM1 091814Z 33008KT 06/M05 A3036 RMK A01 T00591052  RH  045%=      5-min Rain = 0
KAM1 091815Z 33008KT 06/M05 A3036 RMK A01 T00611050  RH  045%=      5-min Rain = 0
KAM1 091816Z 35007KT 06/M05 A3036 RMK A01 T00621052  RH  044%=      5-min Rain = 0
KAM1 091817Z 35005KT 06/M05 A3036 RMK A01 T00611053  RH  044%=      5-min Rain = 0
KAM1 091818Z 34005KT 06/M05 A3036 RMK A01 T00601052  RH  044%=      5-min Rain = 0
KAM1 091819Z 33004KT 06/M05 A3036 RMK A01 T00611051  RH  044%=      5-min Rain = 0
KAM1 091820Z 35005KT 06/M05 A3036 RMK A01 T00621051  RH  044%=      5-min Rain = 0
KAM1 091821Z 01007KT 06/M05 A3036 RMK A01 T00641049  RH  044%=      5-min Rain = 0
KAM1 091822Z 34008KT 07/M05 A3036 RMK A01 T00681047  RH  044%=      5-min Rain = 0
KAM1 091823Z 34007KT 07/M05 A3036 RMK A01 T00681049  RH  043%=      5-min Rain = 0
KAM1 091824Z 36006KT 07/M05 A3036 RMK A01 T00671051  RH  043%=      5-min Rain = 0
KAM1 091825Z 00005KT 06/M05 A3036 RMK A01 T00631054  RH  043%=      5-min Rain = 0
KAM1 091826Z 01007KT 06/M05 A3036 RMK A01 T00621052  RH  044%=      5-min Rain = 0
KAM1 091827Z 35006KT 06/M05 A3035 RMK A01 T00631052  RH  044%=      5-min Rain = 0
KAM1 091828Z 35007KT 06/M05 A3035 RMK A01 T00631051  RH  044%=      5-min Rain = 0
KAM1 091829Z 35005KT 06/M05 A3035 RMK A01 T00641052  RH  043%=      5-min Rain = 0
KAM1 091830Z 35005KT 06/M06 A3035 RMK A01 T00621055  RH  043%=      5-min Rain = 0
KAM1 091831Z 00007KT 06/M05 A3035 RMK A01 T00631053  RH  043%=      5-min Rain = 0
KAM1 091832Z 01007KT 06/M06 A3035 RMK A01 T00641055  RH  042%=      5-min Rain = 0
KAM1 091833Z 02005KT 07/M06 A3035 RMK A01 T00651056  RH  042%=      5-min Rain = 0
KAM1 091834Z 04002KT 06/M06 A3035 RMK A01 T00621058  RH  042%=      5-min Rain = 0
KAM1 091835Z 03002KT 06/M06 A3035 RMK A01 T00621057  RH  042%=      5-min Rain = 0
KAM1 091836Z 36007KT 06/M05 A3035 RMK A01 T00621054  RH  043%=      5-min Rain = 0
KAM1 091837Z 36005KT 07/M05 A3035 RMK A01 T00661053  RH  042%=      5-min Rain = 0
KAM1 091838Z 02006KT 07/M06 A3035 RMK A01 T00681055  RH  041%=      5-min Rain = 0
KAM1 091839Z 02005KT 07/M06 A3035 RMK A01 T00671055  RH  041%=      5-min Rain = 0
KAM1 091840Z 01005KT 07/M06 A3034 RMK A01 T00651056  RH  042%=      5-min Rain = 0
KAM1 091841Z 00005KT 07/M06 A3034 RMK A01 T00651055  RH  042%=      5-min Rain = 0
KAM1 091842Z 04005KT 07/M05 A3034 RMK A01 T00671054  RH  042%=      5-min Rain = 0
KAM1 091843Z 04004KT 07/M06 A3034 RMK A01 T00661057  RH  041%=      5-min Rain = 0
KAM1 091844Z 02006KT 07/M06 A3034 RMK A01 T00661058  RH  041%=      5-min Rain = 0
KAM1 091845Z 03005KT 07/M06 A3034 RMK A01 T00651058  RH  041%=      5-min Rain = 0
KAM1 091846Z 34005KT 07/M06 A3034 RMK A01 T00661058  RH  041%=      5-min Rain = 0
KAM1 091847Z 35006KT 07/M06 A3034 RMK A01 T00671059  RH  040%=      5-min Rain = 0
KAM1 091848Z 34004G9KT 07/M06 A3034 RMK A01 T00671062  RH  039%=      5-min Rain = 0
KAM1 091849Z 34005KT 07/M06 A3034 RMK A01 T00661063  RH  039%=      5-min Rain = 0
KAM1 091850Z 36004KT 07/M07 A3034 RMK A01 T00651066  RH  039%=      5-min Rain = 0
KAM1 091851Z 33005KT 07/M06 A3034 RMK A01 T00651061  RH  040%=      5-min Rain = 0
KAM1 091852Z 33004KT 07/M06 A3034 RMK A01 T00651060  RH  041%=      5-min Rain = 0
KAM1 091853Z 00004KT 07/M06 A3034 RMK A01 T00661057  RH  041%=      5-min Rain = 0
KAM1 091854Z 35003KT 07/M06 A3034 RMK A01 T00671057  RH  041%=      5-min Rain = 0
KAM1 091855Z 34005KT 07/M06 A3034 RMK A01 T00671056  RH  041%=      5-min Rain = 0
KAM1 091856Z 35004KT 07/M06 A3034 RMK A01 T00681057  RH  041%=      5-min Rain = 0
KAM1 091857Z 01004KT 07/M06 A3034 RMK A01 T00671057  RH  041%=      5-min Rain = 0
KAM1 091858Z 01003KT 07/M05 A3034 RMK A01 T00681054  RH  041%=      5-min Rain = 0
KAM1 091859Z 35004KT 07/M05 A3034 RMK A01 T00711053  RH  041%=      5-min Rain = 0
KAM1 091900Z 33006KT 07/M05 A3034 RMK A01 T00741054  RH  040%=      5-min Rain = 0
KAM1 091901Z 33008KT 07/M06 A3034 RMK A01 T00741056  RH  039%=      5-min Rain = 0
KAM1 091902Z 33005KT 07/M06 A3034 RMK A01 T00721058  RH  039%=      5-min Rain = 0
KAM1 091903Z 34004KT 07/M06 A3034 RMK A01 T00691059  RH  040%=      5-min Rain = 0
KAM1 091904Z 33005KT 07/M06 A3034 RMK A01 T00691057  RH  040%=      5-min Rain = 0
KAM1 091905Z 35001KT 07/M06 A3034 RMK A01 T00691056  RH  040%=      5-min Rain = 0
KAM1 091906Z 01001KT 07/M06 A3034 RMK A01 T00711056  RH  040%=      5-min Rain = 0
KAM1 091907Z 33002KT 07/M06 A3034 RMK A01 T00721055  RH  040%=      5-min Rain = 0
KAM1 091908Z 02005KT 07/M06 A3034 RMK A01 T00731056  RH  039%=      5-min Rain = 0
KAM1 091909Z 01007KT 07/M06 A3034 RMK A01 T00731058  RH  039%=      5-min Rain = 0
KAM1 091910Z 34007KT 07/M06 A3034 RMK A01 T00731057  RH  039%=      5-min Rain = 0
KAM1 091911Z 34007KT 07/M06 A3033 RMK A01 T00721057  RH  039%=      5-min Rain = 0
KAM1 091912Z 33006KT 07/M06 A3033 RMK A01 T00721058  RH  039%=      5-min Rain = 0
KAM1 091913Z 32006KT 07/M06 A3033 RMK A01 T00721059  RH  039%=      5-min Rain = 0
KAM1 091914Z 33005KT 07/M06 A3033 RMK A01 T00721061  RH  038%=      5-min Rain = 0
KAM1 091915Z 34006KT 07/M06 A3033 RMK A01 T00711059  RH  039%=      5-min Rain = 0
KAM1 091916Z 36006KT 07/M06 A3033 RMK A01 T00721057  RH  039%=      5-min Rain = 0
KAM1 091917Z 01006KT 07/M06 A3033 RMK A01 T00721059  RH  039%=      5-min Rain = 0
KAM1 091918Z 02006KT 07/M06 A3033 RMK A01 T00721060  RH  038%=      5-min Rain = 0
KAM1 091919Z 01004KT 07/M06 A3033 RMK A01 T00741059  RH  038%=      5-min Rain = 0
KAM1 091920Z 00003KT 07/M06 A3033 RMK A01 T00731060  RH  038%=      5-min Rain = 0
KAM1 091921Z 03004KT 07/M06 A3033 RMK A01 T00741057  RH  039%=      5-min Rain = 0
KAM1 091922Z 05002KT 07/M06 A3033 RMK A01 T00731059  RH  038%=      5-min Rain = 0
KAM1 091923Z 05002KT 07/M06 A3033 RMK A01 T00721059  RH  039%=      5-min Rain = 0
KAM1 091924Z 01002KT 07/M06 A3033 RMK A01 T00731056  RH  039%=      5-min Rain = 0
KAM1 091925Z 00006KT 08/M06 A3033 RMK A01 T00751056  RH  039%=      5-min Rain = 0
KAM1 091926Z 35005KT 08/M06 A3033 RMK A01 T00771058  RH  038%=      5-min Rain = 0
KAM1 091927Z 34005KT 08/M06 A3033 RMK A01 T00761059  RH  038%=      5-min Rain = 0
KAM1 091928Z 33004KT 08/M06 A3033 RMK A01 T00761060  RH  038%=      5-min Rain = 0
KAM1 091929Z 34004KT 08/M06 A3033 RMK A01 T00751060  RH  038%=      5-min Rain = 0
KAM1 091930Z 32002KT 07/M06 A3033 RMK A01 T00741061  RH  038%=      5-min Rain = 0
KAM1 091931Z 33002KT 08/M06 A3033 RMK A01 T00751058  RH  038%=      5-min Rain = 0
KAM1 091932Z 00002KT 08/M06 A3033 RMK A01 T00761058  RH  038%=      5-min Rain = 0
KAM1 091933Z 00003KT 08/M06 A3033 RMK A01 T00771060  RH  037%=      5-min Rain = 0
KAM1 091934Z 36004KT 08/M06 A3033 RMK A01 T00761061  RH  037%=      5-min Rain = 0
KAM1 091935Z 36006KT 08/M06 A3033 RMK A01 T00771058  RH  038%=      5-min Rain = 0
KAM1 091936Z 00007KT 08/M06 A3033 RMK A01 T00791059  RH  037%=      5-min Rain = 0
KAM1 091937Z 00005KT 08/M06 A3033 RMK A01 T00791062  RH  036%=      5-min Rain = 0
KAM1 091938Z 35004KT 08/M06 A3033 RMK A01 T00791063  RH  036%=      5-min Rain = 0
KAM1 091939Z 00005KT 08/M06 A3032 RMK A01 T00791062  RH  036%=      5-min Rain = 0
KAM1 091940Z 35006KT 08/M06 A3032 RMK A01 T00781063  RH  036%=      5-min Rain = 0
KAM1 091941Z 00007KT 08/M06 A3032 RMK A01 T00781061  RH  037%=      5-min Rain = 0
KAM1 091942Z 02003KT 08/M06 A3032 RMK A01 T00791061  RH  036%=      5-min Rain = 0
KAM1 091943Z 24000KT 08/M06 A3032 RMK A01 T00781060  RH  037%=      5-min Rain = 0
KAM1 091944Z 23000KT 08/M06 A3032 RMK A01 T00791062  RH  036%=      5-min Rain = 0
KAM1 091945Z 01000KT 08/M06 A3032 RMK A01 T00811060  RH  036%=      5-min Rain = 0
KAM1 091946Z 03002KT 08/M06 A3032 RMK A01 T00841058  RH  036%=      5-min Rain = 0
KAM1 091947Z 01004KT 08/M06 A3032 RMK A01 T00841059  RH  036%=      5-min Rain = 0
KAM1 091948Z 01005KT 08/M06 A3032 RMK A01 T00841059  RH  036%=      5-min Rain = 0
KAM1 091949Z 35003KT 08/M06 A3032 RMK A01 T00831058  RH  036%=      5-min Rain = 0
KAM1 091950Z 30004KT 08/M06 A3032 RMK A01 T00841059  RH  036%=      5-min Rain = 0
KAM1 091951Z 28002KT 08/M06 A3032 RMK A01 T00821062  RH  036%=      5-min Rain = 0
KAM1 091952Z 30002KT 08/M06 A3032 RMK A01 T00811060  RH  036%=      5-min Rain = 0
KAM1 091953Z 34005KT 08/M06 A3032 RMK A01 T00831057  RH  036%=      5-min Rain = 0
KAM1 091954Z 35005KT 09/M06 A3032 RMK A01 T00851059  RH  036%=      5-min Rain = 0
KAM1 091955Z 34006KT 09/M06 A3032 RMK A01 T00861058  RH  035%=      5-min Rain = 0
KAM1 091956Z 33005KT 09/M06 A3032 RMK A01 T00861061  RH  035%=      5-min Rain = 0
KAM1 091957Z 35006KT 09/M06 A3032 RMK A01 T00851061  RH  035%=      5-min Rain = 0
KAM1 091958Z 02003KT 09/M06 A3032 RMK A01 T00851060  RH  035%=      5-min Rain = 0
KAM1 091959Z 03005KT 09/M06 A3032 RMK A01 T00861060  RH  035%=      5-min Rain = 0
KAM1 092000Z 04004KT 08/M06 A3032 RMK A01 T00841063  RH  035%=      5-min Rain = 0
KAM1 092001Z 05003KT 08/M06 A3032 RMK A01 T00821062  RH  035%=      5-min Rain = 0
KAM1 092002Z 34003KT 08/M06 A3032 RMK A01 T00821060  RH  036%=      5-min Rain = 0
KAM1 092003Z 00004KT 09/M06 A3032 RMK A01 T00851058  RH  036%=      5-min Rain = 0
KAM1 092004Z 01002KT 09/M06 A3032 RMK A01 T00851061  RH  035%=      5-min Rain = 0
KAM1 092005Z 34002KT 08/M06 A3032 RMK A01 T00831063  RH  035%=      5-min Rain = 0
KAM1 092006Z 35004KT 08/M06 A3032 RMK A01 T00831061  RH  035%=      5-min Rain = 0
KAM1 092007Z 02005KT 08/M06 A3032 RMK A01 T00841062  RH  035%=      5-min Rain = 0
KAM1 092008Z 03006KT 09/M06 A3032 RMK A01 T00861062  RH  035%=      5-min Rain = 0
KAM1 092009Z 02005KT 09/M06 A3032 RMK A01 T00861063  RH  034%=      5-min Rain = 0
KAM1 092010Z 02004KT 08/M07 A3032 RMK A01 T00841065  RH  034%=      5-min Rain = 0
KAM1 092011Z 02004KT 08/M07 A3032 RMK A01 T00831065  RH  034%=      5-min Rain = 0
KAM1 092012Z 02003KT 08/M07 A3032 RMK A01 T00821066  RH  034%=      5-min Rain = 0
KAM1 092013Z 01005KT 08/M07 A3032 RMK A01 T00811065  RH  035%=      5-min Rain = 0
KAM1 092014Z 03002KT 08/M06 A3032 RMK A01 T00811063  RH  035%=      5-min Rain = 0
KAM1 092015Z 36003KT 08/M06 A3032 RMK A01 T00831061  RH  035%=      5-min Rain = 0
KAM1 092016Z 32003KT 08/M06 A3032 RMK A01 T00841062  RH  035%=      5-min Rain = 0
KAM1 092017Z 33005KT 09/M06 A3032 RMK A01 T00851062  RH  035%=      5-min Rain = 0
KAM1 092018Z 33004KT 09/M06 A3032 RMK A01 T00861063  RH  034%=      5-min Rain = 0
KAM1 092019Z 35006KT 09/M06 A3032 RMK A01 T00861064  RH  034%=      5-min Rain = 0
KAM1 092020Z 35006KT 09/M06 A3032 RMK A01 T00861063  RH  034%=      5-min Rain = 0
KAM1 092021Z 36006KT 09/M06 A3032 RMK A01 T00861063  RH  034%=      5-min Rain = 0
KAM1 092022Z 01003KT 09/M06 A3032 RMK A01 T00861062  RH  035%=      5-min Rain = 0
KAM1 092023Z 01003KT 09/M06 A3032 RMK A01 T00871062  RH  034%=      5-min Rain = 0
KAM1 092024Z 35003KT 09/M06 A3032 RMK A01 T00871062  RH  034%=      5-min Rain = 0
KAM1 092025Z 32005KT 09/M06 A3032 RMK A01 T00871062  RH  034%=      5-min Rain = 0
KAM1 092026Z 35006KT 09/M06 A3032 RMK A01 T00871061  RH  034%=      5-min Rain = 0
KAM1 092027Z 36006KT 09/M06 A3032 RMK A01 T00881061  RH  034%=      5-min Rain = 0
KAM1 092028Z 35005KT 09/M06 A3032 RMK A01 T00871062  RH  034%=      5-min Rain = 0
KAM1 092029Z 35004KT 09/M06 A3032 RMK A01 T00861063  RH  034%=      5-min Rain = 0
KAM1 092030Z 36003KT 09/M06 A3032 RMK A01 T00851064  RH  034%=      5-min Rain = 0
KAM1 092031Z 31004KT 08/M06 A3032 RMK A01 T00841064  RH  035%=      5-min Rain = 0
KAM1 092032Z 33005KT 09/M06 A3032 RMK A01 T00851063  RH  034%=      5-min Rain = 0
KAM1 092033Z 34006KT 09/M06 A3032 RMK A01 T00871062  RH  034%=      5-min Rain = 0
KAM1 092034Z 32004KT 09/M06 A3032 RMK A01 T00881064  RH  034%=      5-min Rain = 0
KAM1 092035Z 34003KT 09/M07 A3032 RMK A01 T00881065  RH  033%=      5-min Rain = 0
KAM1 092036Z 01002KT 09/M07 A3032 RMK A01 T00861065  RH  033%=      5-min Rain = 0
KAM1 092037Z 32004KT 09/M06 A3032 RMK A01 T00861064  RH  034%=      5-min Rain = 0
KAM1 092038Z 32004KT 09/M06 A3032 RMK A01 T00891062  RH  034%=      5-min Rain = 0
KAM1 092039Z 00005KT 09/M06 A3032 RMK A01 T00911061  RH  034%=      5-min Rain = 0
KAM1 092040Z 36007KT 09/M06 A3032 RMK A01 T00921063  RH  033%=      5-min Rain = 0
KAM1 092041Z 36006KT 09/M07 A3032 RMK A01 T00901066  RH  033%=      5-min Rain = 0
KAM1 092042Z 35005KT 09/M07 A3032 RMK A01 T00881066  RH  033%=      5-min Rain = 0
KAM1 092043Z 33002KT 09/M07 A3032 RMK A01 T00871067  RH  033%=      5-min Rain = 0
KAM1 092044Z 35002KT 09/M07 A3032 RMK A01 T00861067  RH  033%=      5-min Rain = 0
KAM1 092045Z 35003KT 09/M07 A3032 RMK A01 T00871066  RH  033%=      5-min Rain = 0
KAM1 092046Z 34005KT 09/M06 A3032 RMK A01 T00891064  RH  033%=      5-min Rain = 0
KAM1 092047Z 34006KT 09/M07 A3032 RMK A01 T00901066  RH  033%=      5-min Rain = 0
KAM1 092048Z 34004KT 09/M07 A3032 RMK A01 T00901068  RH  032%=      5-min Rain = 0
KAM1 092049Z 32003KT 09/M07 A3032 RMK A01 T00891069  RH  032%=      5-min Rain = 0
KAM1 092050Z 32005KT 09/M07 A3032 RMK A01 T00891070  RH  032%=      5-min Rain = 0
KAM1 092051Z 33008KT 09/M07 A3032 RMK A01 T00891071  RH  032%=      5-min Rain = 0
KAM1 092052Z 34007KT 09/M07 A3032 RMK A01 T00891071  RH  031%=      5-min Rain = 0
KAM1 092053Z 36006KT 09/M07 A3032 RMK A01 T00911070  RH  031%=      5-min Rain = 0
KAM1 092054Z 36004KT 09/M07 A3032 RMK A01 T00921073  RH  030%=      5-min Rain = 0
KAM1 092055Z 34006KT 09/M07 A3032 RMK A01 T00901073  RH  031%=      5-min Rain = 0
KAM1 092056Z 00007KT 09/M07 A3032 RMK A01 T00921071  RH  031%=      5-min Rain = 0
KAM1 092057Z 01007KT 09/M07 A3032 RMK A01 T00921071  RH  031%=      5-min Rain = 0
KAM1 092058Z 01006KT 09/M07 A3032 RMK A01 T00901071  RH  031%=      5-min Rain = 0
KAM1 092059Z 35004KT 09/M07 A3032 RMK A01 T00891071  RH  032%=      5-min Rain = 0
KAM1 092100Z 35007KT 09/M07 A3032 RMK A01 T00881069  RH  032%=      5-min Rain = 0
KAM1 092101Z 35006KT 09/M07 A3032 RMK A01 T00891070  RH  032%=      5-min Rain = 0
KAM1 092102Z 35006KT 09/M07 A3032 RMK A01 T00881071  RH  032%=      5-min Rain = 0
KAM1 092103Z 34005KT 09/M07 A3032 RMK A01 T00881072  RH  032%=      5-min Rain = 0
KAM1 092104Z 35005KT 09/M07 A3032 RMK A01 T00881073  RH  031%=      5-min Rain = 0
KAM1 092105Z 35004KT 09/M07 A3032 RMK A01 T00891074  RH  031%=      5-min Rain = 0
KAM1 092106Z 36004KT 09/M07 A3032 RMK A01 T00891072  RH  031%=      5-min Rain = 0
KAM1 092107Z 35007KT 09/M07 A3032 RMK A01 T00901071  RH  031%=      5-min Rain = 0
KAM1 092108Z 34005KT 09/M07 A3032 RMK A01 T00921072  RH  031%=      5-min Rain = 0
KAM1 092109Z 35006KT 09/M07 A3032 RMK A01 T00941071  RH  031%=      5-min Rain = 0
KAM1 092110Z 01006KT 10/M07 A3032 RMK A01 T00961068  RH  031%=      5-min Rain = 0
KAM1 092111Z 01007KT 10/M07 A3032 RMK A01 T00971069  RH  030%=      5-min Rain = 0
KAM1 092112Z 00006KT 10/M07 A3032 RMK A01 T00951072  RH  030%=      5-min Rain = 0
KAM1 092113Z 01005KT 09/M07 A3032 RMK A01 T00931073  RH  030%=      5-min Rain = 0
KAM1 092114Z 02005KT 09/M07 A3032 RMK A01 T00921073  RH  030%=      5-min Rain = 0
KAM1 092115Z 36003KT 09/M07 A3032 RMK A01 T00921072  RH  031%=      5-min Rain = 0
KAM1 092116Z 02004KT 09/M07 A3032 RMK A01 T00921073  RH  031%=      5-min Rain = 0
KAM1 092117Z 04005KT 09/M08 A3032 RMK A01 T00931075  RH  030%=      5-min Rain = 0
KAM1 092118Z 03004KT 09/M08 A3032 RMK A01 T00921076  RH  030%=      5-min Rain = 0
KAM1 092119Z 01005KT 09/M08 A3032 RMK A01 T00921075  RH  030%=      5-min Rain = 0
KAM1 092120Z 02007KT 09/M08 A3032 RMK A01 T00921075  RH  030%=      5-min Rain = 0
KAM1 092121Z 02007KT 09/M08 A3032 RMK A01 T00921075  RH  030%=      5-min Rain = 0
KAM1 092122Z 01007KT 09/M08 A3032 RMK A01 T00921077  RH  029%=      5-min Rain = 0
KAM1 092123Z 35006KT 09/M08 A3032 RMK A01 T00931075  RH  030%=      5-min Rain = 0
KAM1 092124Z 36005KT 10/M07 A3032 RMK A01 T00951072  RH  030%=      5-min Rain = 0
KAM1 092125Z 02005KT 10/M07 A3032 RMK A01 T00961072  RH  030%=      5-min Rain = 0
KAM1 092126Z 03006KT 09/M07 A3032 RMK A01 T00941074  RH  030%=      5-min Rain = 0
KAM1 092127Z 02006KT 09/M07 A3032 RMK A01 T00941073  RH  030%=      5-min Rain = 0
KAM1 092128Z 03004KT 09/M08 A3032 RMK A01 T00921076  RH  030%=      5-min Rain = 0
KAM1 092129Z 04003KT 09/M08 A3032 RMK A01 T00911076  RH  030%=      5-min Rain = 0
KAM1 092130Z 04002KT 09/M08 A3032 RMK A01 T00911075  RH  030%=      5-min Rain = 0
KAM1 092131Z 02003KT 09/M07 A3032 RMK A01 T00921073  RH  030%=      5-min Rain = 0
KAM1 092132Z 36004KT 09/M07 A3032 RMK A01 T00921073  RH  030%=      5-min Rain = 0
KAM1 092133Z 35005KT 09/M07 A3032 RMK A01 T00931073  RH  030%=      5-min Rain = 0
KAM1 092134Z 00004KT 09/M07 A3032 RMK A01 T00931072  RH  030%=      5-min Rain = 0
KAM1 092135Z 01005KT 09/M07 A3032 RMK A01 T00941073  RH  030%=      5-min Rain = 0
KAM1 092136Z 03006KT 09/M08 A3032 RMK A01 T00941079  RH  029%=      5-min Rain = 0
KAM1 092137Z 03006KT 09/M08 A3032 RMK A01 T00941083  RH  028%=      5-min Rain = 0
KAM1 092138Z 02004KT 09/M09 A3032 RMK A01 T00941086  RH  027%=      5-min Rain = 0
KAM1 092139Z 04005KT 09/M08 A3032 RMK A01 T00941084  RH  028%=      5-min Rain = 0
KAM1 092140Z 05005KT 10/M08 A3032 RMK A01 T00951082  RH  028%=      5-min Rain = 0
KAM1 092141Z 03002KT 10/M08 A3031 RMK A01 T00951083  RH  027%=      5-min Rain = 0
KAM1 092142Z 05003KT 10/M08 A3031 RMK A01 T00951083  RH  028%=      5-min Rain = 0
KAM1 092143Z 03005KT 10/M08 A3031 RMK A01 T00961083  RH  028%=      5-min Rain = 0
KAM1 092144Z 05007KT 10/M08 A3031 RMK A01 T00961083  RH  028%=      5-min Rain = 0
KAM1 092145Z 05007KT 10/M09 A3031 RMK A01 T00961085  RH  027%=      5-min Rain = 0
KAM1 092146Z 06005KT 09/M09 A3031 RMK A01 T00941087  RH  027%=      5-min Rain = 0
KAM1 092147Z 06004KT 09/M09 A3031 RMK A01 T00921087  RH  027%=      5-min Rain = 0
KAM1 092148Z 05002KT 09/M09 A3031 RMK A01 T00921087  RH  027%=      5-min Rain = 0
KAM1 092149Z 02003KT 09/M08 A3031 RMK A01 T00931083  RH  028%=      5-min Rain = 0
KAM1 092150Z 04002KT 09/M08 A3031 RMK A01 T00941083  RH  028%=      5-min Rain = 0
KAM1 092151Z 03005KT 10/M09 A3031 RMK A01 T00951085  RH  027%=      5-min Rain = 0
KAM1 092152Z 01004KT 09/M09 A3031 RMK A01 T00941088  RH  027%=      5-min Rain = 0
KAM1 092153Z 03004KT 09/M09 A3031 RMK A01 T00931089  RH  027%=      5-min Rain = 0
KAM1 092154Z 03006KT 09/M09 A3031 RMK A01 T00931091  RH  026%=      5-min Rain = 0
KAM1 092155Z 03005KT 09/M09 A3031 RMK A01 T00941094  RH  025%=      5-min Rain = 0
KAM1 092156Z 03005KT 09/M09 A3031 RMK A01 T00941093  RH  026%=      5-min Rain = 0
KAM1 092157Z 02005KT 09/M09 A3031 RMK A01 T00931092  RH  026%=      5-min Rain = 0
KAM1 092158Z 02004KT 09/M09 A3031 RMK A01 T00931090  RH  027%=      5-min Rain = 0
KAM1 092159Z 03005KT 09/M09 A3031 RMK A01 T00931088  RH  027%=      5-min Rain = 0
KAM1 092200Z 03004KT 09/M09 A3031 RMK A01 T00941088  RH  027%=      5-min Rain = 0
KAM1 092201Z 05004KT 09/M09 A3031 RMK A01 T00941087  RH  027%=      5-min Rain = 0
KAM1 092202Z 04003KT 09/M09 A3031 RMK A01 T00941087  RH  027%=      5-min Rain = 0
KAM1 092203Z 05004KT 09/M09 A3031 RMK A01 T00931088  RH  027%=      5-min Rain = 0
KAM1 092204Z 05003KT 09/M09 A3031 RMK A01 T00931090  RH  027%=      5-min Rain = 0
KAM1 092205Z 04002KT 09/M09 A3031 RMK A01 T00921089  RH  027%=      5-min Rain = 0
KAM1 092206Z 05004KT 09/M09 A3031 RMK A01 T00931088  RH  027%=      5-min Rain = 0
KAM1 092207Z 05004KT 09/M09 A3031 RMK A01 T00941089  RH  027%=      5-min Rain = 0
KAM1 092208Z 05002KT 09/M09 A3031 RMK A01 T00941090  RH  026%=      5-min Rain = 0
KAM1 092209Z 05002KT 09/M09 A3031 RMK A01 T00941089  RH  026%=      5-min Rain = 0
KAM1 092210Z 05002KT 09/M09 A3031 RMK A01 T00941091  RH  026%=      5-min Rain = 0
KAM1 092211Z 03003KT 09/M09 A3031 RMK A01 T00941092  RH  026%=      5-min Rain = 0
KAM1 092212Z 04003KT 09/M09 A3031 RMK A01 T00941091  RH  026%=      5-min Rain = 0
KAM1 092213Z 04005KT 10/M09 A3031 RMK A01 T00951091  RH  026%=      5-min Rain = 0
KAM1 092214Z 03005KT 09/M09 A3031 RMK A01 T00941094  RH  025%=      5-min Rain = 0
KAM1 092215Z 03004KT 09/M09 A3031 RMK A01 T00941094  RH  026%=      5-min Rain = 0
KAM1 092216Z 03004KT 09/M09 A3031 RMK A01 T00931094  RH  026%=      5-min Rain = 0
KAM1 092217Z 03004KT 09/M09 A3031 RMK A01 T00931093  RH  026%=      5-min Rain = 0
KAM1 092218Z 35005KT 09/M09 A3031 RMK A01 T00931094  RH  026%=      5-min Rain = 0
KAM1 092219Z 34004KT 09/M09 A3031 RMK A01 T00931093  RH  026%=      5-min Rain = 0
KAM1 092220Z 35005KT 09/M09 A3031 RMK A01 T00931094  RH  026%=      5-min Rain = 0
KAM1 092221Z 03003KT 09/M09 A3031 RMK A01 T00931093  RH  026%=      5-min Rain = 0
KAM1 092222Z 04003KT 09/M09 A3031 RMK A01 T00941092  RH  026%=      5-min Rain = 0
KAM1 092223Z 04004KT 09/M09 A3031 RMK A01 T00941093  RH  026%=      5-min Rain = 0
KAM1 092224Z 02005KT 09/M09 A3032 RMK A01 T00941093  RH  026%=      5-min Rain = 0
KAM1 092225Z 02004KT 09/M10 A3032 RMK A01 T00941096  RH  025%=      5-min Rain = 0
KAM1 092226Z 01004KT 09/M10 A3032 RMK A01 T00941098  RH  025%=      5-min Rain = 0
KAM1 092227Z 01003KT 09/M10 A3032 RMK A01 T00931097  RH  025%=      5-min Rain = 0
KAM1 092228Z 03003KT 09/M10 A3032 RMK A01 T00931097  RH  025%=      5-min Rain = 0
KAM1 092229Z 02003KT 09/M10 A3032 RMK A01 T00931096  RH  025%=      5-min Rain = 0
KAM1 092230Z 01003KT 09/M10 A3032 RMK A01 T00931095  RH  025%=      5-min Rain = 0
KAM1 092231Z 03003KT 09/M10 A3032 RMK A01 T00931095  RH  025%=      5-min Rain = 0
KAM1 092232Z 05005KT 09/M10 A3032 RMK A01 T00931098  RH  025%=      5-min Rain = 0
KAM1 092233Z 04004KT 09/M10 A3032 RMK A01 T00941098  RH  025%=      5-min Rain = 0
KAM1 092234Z 04004KT 09/M10 A3032 RMK A01 T00931100  RH  024%=      5-min Rain = 0
KAM1 092235Z 03003KT 09/M10 A3032 RMK A01 T00931103  RH  024%=      5-min Rain = 0
KAM1 092236Z 03003KT 09/M11 A3032 RMK A01 T00931105  RH  024%=      5-min Rain = 0
KAM1 092237Z 05003KT 09/M11 A3032 RMK A01 T00931105  RH  023%=      5-min Rain = 0
KAM1 092238Z 06004KT 09/M11 A3032 RMK A01 T00931106  RH  023%=      5-min Rain = 0
KAM1 092239Z 06005KT 09/M10 A3032 RMK A01 T00931104  RH  024%=      5-min Rain = 0
KAM1 092240Z 05004KT 09/M10 A3032 RMK A01 T00931103  RH  024%=      5-min Rain = 0
KAM1 092241Z 06005KT 09/M10 A3032 RMK A01 T00931103  RH  024%=      5-min Rain = 0
KAM1 092242Z 05006KT 09/M10 A3032 RMK A01 T00921101  RH  024%=      5-min Rain = 0
KAM1 092243Z 04005KT 09/M10 A3032 RMK A01 T00921099  RH  025%=      5-min Rain = 0
KAM1 092244Z 03006KT 09/M10 A3032 RMK A01 T00921098  RH  025%=      5-min Rain = 0
KAM1 092245Z 03005KT 09/M10 A3032 RMK A01 T00911098  RH  025%=      5-min Rain = 0
KAM1 092246Z 03005KT 09/M10 A3032 RMK A01 T00911098  RH  025%=      5-min Rain = 0
KAM1 092247Z 03005KT 09/M10 A3032 RMK A01 T00911098  RH  025%=      5-min Rain = 0
KAM1 092248Z 03005KT 09/M10 A3032 RMK A01 T00911099  RH  025%=      5-min Rain = 0
KAM1 092249Z 03005KT 09/M10 A3032 RMK A01 T00901100  RH  025%=      5-min Rain = 0
KAM1 092250Z 04005KT 09/M10 A3032 RMK A01 T00901099  RH  025%=      5-min Rain = 0
KAM1 092251Z 04005KT 09/M10 A3032 RMK A01 T00901097  RH  026%=      5-min Rain = 0
KAM1 092252Z 04005KT 09/M10 A3032 RMK A01 T00901097  RH  026%=      5-min Rain = 0
KAM1 092253Z 04005KT 09/M10 A3032 RMK A01 T00891096  RH  026%=      5-min Rain = 0
KAM1 092254Z 04005KT 09/M10 A3032 RMK A01 T00891096  RH  026%=      5-min Rain = 0
KAM1 092255Z 05005KT 09/M10 A3032 RMK A01 T00881096  RH  026%=      5-min Rain = 0
KAM1 092256Z 04006KT 09/M10 A3032 RMK A01 T00871095  RH  026%=      5-min Rain = 0
KAM1 092257Z 04005KT 09/M10 A3032 RMK A01 T00871096  RH  026%=      5-min Rain = 0
KAM1 092258Z 05005KT 09/M10 A3032 RMK A01 T00861095  RH  027%=      5-min Rain = 0
KAM1 092259Z 05006KT 09/M09 A3032 RMK A01 T00851094  RH  027%=      5-min Rain = 0
KAM1 092300Z 05005KT 09/M09 A3032 RMK A01 T00851094  RH  027%=      5-min Rain = 0
KAM1 092301Z 04005KT 09/M09 A3032 RMK A01 T00851093  RH  027%=      5-min Rain = 0
KAM1 092302Z 04005KT 08/M09 A3032 RMK A01 T00841092  RH  028%=      5-min Rain = 0
KAM1 092303Z 04005KT 08/M09 A3032 RMK A01 T00841093  RH  028%=      5-min Rain = 0
KAM1 092304Z 05004KT 08/M09 A3032 RMK A01 T00831092  RH  028%=      5-min Rain = 0
KAM1 092305Z 05005KT 08/M09 A3032 RMK A01 T00821091  RH  028%=      5-min Rain = 0
KAM1 092306Z 04005KT 08/M09 A3032 RMK A01 T00811091  RH  028%=      5-min Rain = 0
KAM1 092307Z 05005KT 08/M09 A3032 RMK A01 T00801091  RH  029%=      5-min Rain = 0
KAM1 092308Z 05005KT 08/M09 A3032 RMK A01 T00801090  RH  029%=      5-min Rain = 0
KAM1 092309Z 04005KT 08/M09 A3032 RMK A01 T00791090  RH  029%=      5-min Rain = 0
KAM1 092310Z 05005KT 08/M09 A3032 RMK A01 T00781089  RH  029%=      5-min Rain = 0
KAM1 092311Z 05005KT 08/M09 A3032 RMK A01 T00771089  RH  030%=      5-min Rain = 0
KAM1 092312Z 04005KT 08/M09 A3032 RMK A01 T00761089  RH  030%=      5-min Rain = 0
KAM1 092313Z 04005KT 08/M09 A3032 RMK A01 T00751089  RH  030%=      5-min Rain = 0
KAM1 092314Z 04005KT 07/M09 A3032 RMK A01 T00731089  RH  030%=      5-min Rain = 0
KAM1 092315Z 04005KT 07/M09 A3032 RMK A01 T00731089  RH  031%=      5-min Rain = 0
KAM1 092316Z 04005KT 07/M09 A3032 RMK A01 T00721089  RH  031%=      5-min Rain = 0
KAM1 092317Z 05005KT 07/M09 A3032 RMK A01 T00711089  RH  031%=      5-min Rain = 0
KAM1 092318Z 04005KT 07/M09 A3032 RMK A01 T00701089  RH  031%=      5-min Rain = 0
KAM1 092319Z 04005KT 07/M09 A3032 RMK A01 T00691089  RH  032%=      5-min Rain = 0
KAM1 092320Z 04004KT 07/M09 A3032 RMK A01 T00671089  RH  032%=      5-min Rain = 0
KAM1 092321Z 04004KT 07/M09 A3032 RMK A01 T00671088  RH  032%=      5-min Rain = 0
KAM1 092322Z 05005KT 07/M09 A3032 RMK A01 T00661088  RH  032%=      5-min Rain = 0
KAM1 092323Z 04005KT 07/M09 A3032 RMK A01 T00661087  RH  033%=      5-min Rain = 0
KAM1 092324Z 04005KT 07/M09 A3032 RMK A01 T00651087  RH  033%=      5-min Rain = 0
KAM1 092325Z 05005KT 07/M09 A3032 RMK A01 T00651087  RH  033%=      5-min Rain = 0
KAM1 092326Z 05005KT 07/M09 A3032 RMK A01 T00651087  RH  033%=      5-min Rain = 0
KAM1 092327Z 04005KT 06/M09 A3032 RMK A01 T00641087  RH  033%=      5-min Rain = 0
KAM1 092328Z 04005KT 06/M09 A3032 RMK A01 T00631088  RH  033%=      5-min Rain = 0
KAM1 092329Z 04004KT 06/M09 A3032 RMK A01 T00611089  RH  033%=      5-min Rain = 0
KAM1 092330Z 04005KT 06/M09 A3032 RMK A01 T00581088  RH  034%=      5-min Rain = 0
KAM1 092331Z 04005KT 06/M09 A3033 RMK A01 T00571087  RH  035%=      5-min Rain = 0
KAM1 092332Z 04005KT 06/M09 A3033 RMK A01 T00561086  RH  035%=      5-min Rain = 0
KAM1 092333Z 04005KT 06/M09 A3033 RMK A01 T00551085  RH  036%=      5-min Rain = 0
KAM1 092334Z 04005KT 06/M09 A3033 RMK A01 T00551085  RH  036%=      5-min Rain = 0
KAM1 092335Z 04005KT 05/M09 A3033 RMK A01 T00531085  RH  036%=      5-min Rain = 0
KAM1 092336Z 05005KT 05/M09 A3033 RMK A01 T00521085  RH  036%=      5-min Rain = 0
KAM1 092337Z 05006KT 05/M09 A3033 RMK A01 T00501086  RH  037%=      5-min Rain = 0
KAM1 092338Z 05006KT 05/M09 A3033 RMK A01 T00471088  RH  037%=      5-min Rain = 0
KAM1 092339Z 04006KT 05/M09 A3033 RMK A01 T00461088  RH  037%=      5-min Rain = 0
KAM1 092340Z 04006KT 04/M09 A3033 RMK A01 T00431090  RH  037%=      5-min Rain = 0
KAM1 092341Z 04005KT 04/M09 A3033 RMK A01 T00401091  RH  038%=      5-min Rain = 0
KAM1 092342Z 04006KT 04/M09 A3033 RMK A01 T00391088  RH  039%=      5-min Rain = 0
KAM1 092343Z 04006KT 04/M09 A3033 RMK A01 T00401085  RH  040%=      5-min Rain = 0
KAM1 092344Z 05007KT 04/M09 A3033 RMK A01 T00401085  RH  040%=      5-min Rain = 0
KAM1 092345Z 05007KT 04/M09 A3033 RMK A01 T00391085  RH  040%=      5-min Rain = 0
KAM1 092346Z 05007KT 04/M09 A3033 RMK A01 T00381086  RH  040%=      5-min Rain = 0
KAM1 092347Z 05007KT 04/M09 A3033 RMK A01 T00361086  RH  040%=      5-min Rain = 0
KAM1 092348Z 04007KT 04/M09 A3033 RMK A01 T00351087  RH  040%=      5-min Rain = 0
KAM1 092349Z 04007KT 03/M09 A3033 RMK A01 T00331089  RH  041%=      5-min Rain = 0
KAM1 092350Z 03007KT 03/M09 A3033 RMK A01 T00301089  RH  041%=      5-min Rain = 0
KAM1 092351Z 03007KT 03/M09 A3033 RMK A01 T00271089  RH  042%=      5-min Rain = 0
KAM1 092352Z 03007KT 03/M09 A3033 RMK A01 T00251090  RH  042%=      5-min Rain = 0
KAM1 092353Z 03007KT 02/M09 A3033 RMK A01 T00231091  RH  043%=      5-min Rain = 0
KAM1 092354Z 03007KT 02/M09 A3034 RMK A01 T00221091  RH  043%=      5-min Rain = 0
KAM1 092355Z 03007KT 02/M09 A3034 RMK A01 T00221089  RH  044%=      5-min Rain = 0
KAM1 092356Z 03008KT 02/M09 A3034 RMK A01 T00241087  RH  044%=      5-min Rain = 0
KAM1 092357Z 03008KT 02/M09 A3034 RMK A01 T00241089  RH  043%=      5-min Rain = 0
KAM1 092358Z 03007KT 02/M09 A3034 RMK A01 T00211094  RH  043%=      5-min Rain = 0
KAM1 092359Z 03006KT 02/M10 A3034 RMK A01 T00161096  RH  043%=      5-min Rain = 0
KAM1 100000Z 04007KT 02/M09 A3034 RMK A01 T00151094  RH  044%=      5-min Rain = 0
KAM1 100001Z 04007KT 02/M09 A3034 RMK A01 T00151092  RH  045%=      5-min Rain = 0
KAM1 100002Z 04007KT 02/M09 A3034 RMK A01 T00151092  RH  045%=      5-min Rain = 0
KAM1 100003Z 04007KT 02/M09 A3034 RMK A01 T00171088  RH  045%=      5-min Rain = 0
KAM1 100004Z 04007KT 02/M09 A3034 RMK A01 T00211086  RH  045%=      5-min Rain = 0
KAM1 100005Z 04007KT 02/M09 A3034 RMK A01 T00221086  RH  045%=      5-min Rain = 0
KAM1 100006Z 04007KT 02/M09 A3034 RMK A01 T00231085  RH  045%=      5-min Rain = 0
KAM1 100007Z 04007KT 02/M09 A3034 RMK A01 T00241085  RH  044%=      5-min Rain = 0
KAM1 100008Z 04007KT 02/M09 A3034 RMK A01 T00241086  RH  044%=      5-min Rain = 0
KAM1 100009Z 04006KT 02/M09 A3034 RMK A01 T00241086  RH  044%=      5-min Rain = 0
KAM1 100010Z 04006KT 02/M09 A3034 RMK A01 T00241086  RH  044%=      5-min Rain = 0
KAM1 100011Z 05006KT 02/M09 A3034 RMK A01 T00231085  RH  045%=      5-min Rain = 0
KAM1 100012Z 05006KT 02/M09 A3034 RMK A01 T00231085  RH  045%=      5-min Rain = 0
KAM1 100013Z 05006KT 02/M08 A3034 RMK A01 T00231084  RH  045%=      5-min Rain = 0
KAM1 100014Z 05006KT 02/M08 A3034 RMK A01 T00241083  RH  045%=      5-min Rain = 0
KAM1 100015Z 05006KT 03/M08 A3034 RMK A01 T00251083  RH  045%=      5-min Rain = 0
KAM1 100016Z 05006KT 03/M08 A3034 RMK A01 T00251084  RH  045%=      5-min Rain = 0
KAM1 100017Z 05006KT 02/M09 A3034 RMK A01 T00221086  RH  045%=      5-min Rain = 0
KAM1 100018Z 05007KT 02/M09 A3034 RMK A01 T00191087  RH  045%=      5-min Rain = 0
KAM1 100019Z 05006KT 02/M09 A3034 RMK A01 T00181086  RH  046%=      5-min Rain = 0
KAM1 100020Z 05006KT 02/M09 A3034 RMK A01 T00171085  RH  047%=      5-min Rain = 0
KAM1 100021Z 05006KT 02/M08 A3034 RMK A01 T00171084  RH  047%=      5-min Rain = 0
KAM1 100022Z 05007KT 02/M08 A3034 RMK A01 T00211082  RH  047%=      5-min Rain = 0
KAM1 100023Z 05006KT 02/M08 A3034 RMK A01 T00221083  RH  046%=      5-min Rain = 0
KAM1 100024Z 05006KT 02/M09 A3034 RMK A01 T00211085  RH  046%=      5-min Rain = 0
KAM1 100025Z 05006KT 02/M09 A3034 RMK A01 T00171087  RH  046%=      5-min Rain = 0
KAM1 100026Z 05006KT 01/M09 A3034 RMK A01 T00141088  RH  047%=      5-min Rain = 0
KAM1 100027Z 05006KT 01/M09 A3034 RMK A01 T00131086  RH  047%=      5-min Rain = 0
KAM1 100028Z 05005KT 01/M08 A3034 RMK A01 T00141084  RH  048%=      5-min Rain = 0
KAM1 100029Z 05005KT 02/M09 A3034 RMK A01 T00161085  RH  047%=      5-min Rain = 0
KAM1 100030Z 05005KT 01/M09 A3034 RMK A01 T00141086  RH  047%=      5-min Rain = 0
KAM1 100031Z 05005KT 01/M08 A3034 RMK A01 T00141084  RH  048%=      5-min Rain = 0
KAM1 100032Z 05005KT 02/M08 A3034 RMK A01 T00161083  RH  048%=      5-min Rain = 0
KAM1 100033Z 05005KT 02/M08 A3035 RMK A01 T00181083  RH  047%=      5-min Rain = 0
KAM1 100034Z 05005KT 02/M09 A3035 RMK A01 T00191085  RH  046%=      5-min Rain = 0
KAM1 100035Z 05005KT 02/M08 A3035 RMK A01 T00191084  RH  046%=      5-min Rain = 0
KAM1 100036Z 05005KT 02/M08 A3035 RMK A01 T00201083  RH  046%=      5-min Rain = 0
KAM1 100037Z 05005KT 02/M08 A3035 RMK A01 T00221082  RH  046%=      5-min Rain = 0
KAM1 100038Z 05005KT 02/M08 A3035 RMK A01 T00231082  RH  046%=      5-min Rain = 0
KAM1 100039Z 04004KT 02/M08 A3035 RMK A01 T00241082  RH  046%=      5-min Rain = 0
KAM1 100040Z 04004KT 03/M08 A3035 RMK A01 T00251082  RH  045%=      5-min Rain = 0
KAM1 100041Z 04004KT 03/M08 A3035 RMK A01 T00261082  RH  045%=      5-min Rain = 0
KAM1 100042Z 04004KT 03/M08 A3035 RMK A01 T00261082  RH  045%=      5-min Rain = 0
KAM1 100043Z 04004KT 03/M08 A3035 RMK A01 T00261082  RH  045%=      5-min Rain = 0
KAM1 100044Z 04004KT 03/M08 A3035 RMK A01 T00261083  RH  044%=      5-min Rain = 0
KAM1 100045Z 04004KT 03/M08 A3035 RMK A01 T00261083  RH  044%=      5-min Rain = 0
KAM1 100046Z 04004KT 03/M08 A3035 RMK A01 T00251084  RH  045%=      5-min Rain = 0
KAM1 100047Z 04004KT 02/M08 A3035 RMK A01 T00241083  RH  045%=      5-min Rain = 0
KAM1 100048Z 04004KT 03/M08 A3035 RMK A01 T00251083  RH  045%=      5-min Rain = 0
KAM1 100049Z 04004KT 03/M08 A3035 RMK A01 T00251082  RH  045%=      5-min Rain = 0
KAM1 100050Z 05004KT 03/M08 A3035 RMK A01 T00261082  RH  045%=      5-min Rain = 0
KAM1 100051Z 05004KT 03/M08 A3035 RMK A01 T00271082  RH  045%=      5-min Rain = 0
KAM1 100052Z 05004KT 03/M08 A3035 RMK A01 T00271082  RH  045%=      5-min Rain = 0
KAM1 100053Z 05004KT 03/M08 A3035 RMK A01 T00271081  RH  045%=      5-min Rain = 0
KAM1 100054Z 05004KT 03/M08 A3035 RMK A01 T00271081  RH  045%=      5-min Rain = 0
KAM1 100055Z 05003KT 03/M08 A3035 RMK A01 T00271082  RH  045%=      5-min Rain = 0
KAM1 100056Z 05004KT 03/M08 A3035 RMK A01 T00271082  RH  045%=      5-min Rain = 0
KAM1 100057Z 04004KT 03/M08 A3035 RMK A01 T00271082  RH  045%=      5-min Rain = 0
KAM1 100058Z 04004KT 03/M08 A3035 RMK A01 T00271082  RH  045%=      5-min Rain = 0
KAM1 100059Z 04004KT 03/M08 A3035 RMK A01 T00271081  RH  045%=      5-min Rain = 0
KAM1 100100Z 04004KT 03/M08 A3035 RMK A01 T00271081  RH  045%=      5-min Rain = 0
KAM1 100101Z 04004KT 03/M08 A3035 RMK A01 T00271081  RH  045%=      5-min Rain = 0
KAM1 100102Z 03004KT 03/M08 A3035 RMK A01 T00281081  RH  045%=      5-min Rain = 0
KAM1 100103Z 03004KT 03/M08 A3035 RMK A01 T00271081  RH  045%=      5-min Rain = 0
KAM1 100104Z 01005KT 03/M08 A3036 RMK A01 T00271081  RH  045%=      5-min Rain = 0
KAM1 100105Z 35007KT 03/M08 A3036 RMK A01 T00261083  RH  044%=      5-min Rain = 0
KAM1 100106Z 36007KT 02/M09 A3036 RMK A01 T00171094  RH  044%=      5-min Rain = 0
KAM1 100107Z 36007KT 01/M10 A3036 RMK A01 T00071096  RH  046%=      5-min Rain = 0
KAM1 100108Z 01007KT 00/M09 A3036 RMK A01 T00031093  RH  048%=      5-min Rain = 0
KAM1 100109Z 01006KT 00/M09 A3036 RMK A01 T00031089  RH  050%=      5-min Rain = 0
KAM1 100110Z 01006KT 01/M09 A3036 RMK A01 T00051086  RH  051%=      5-min Rain = 0
KAM1 100111Z 01006KT 01/M09 A3036 RMK A01 T00051085  RH  051%=      5-min Rain = 0
KAM1 100112Z 00006KT 01/M08 A3036 RMK A01 T00061084  RH  051%=      5-min Rain = 0
KAM1 100113Z 01006KT 01/M08 A3036 RMK A01 T00071083  RH  051%=      5-min Rain = 0
KAM1 100114Z 00005KT 01/M08 A3036 RMK A01 T00081083  RH  050%=      5-min Rain = 0
KAM1 100115Z 01005KT 01/M08 A3036 RMK A01 T00081084  RH  050%=      5-min Rain = 0
KAM1 100116Z 01005KT 01/M09 A3036 RMK A01 T00081085  RH  050%=      5-min Rain = 0
KAM1 100117Z 01005KT 01/M09 A3036 RMK A01 T00071086  RH  050%=      5-min Rain = 0
KAM1 100118Z 01005KT 01/M09 A3036 RMK A01 T00051086  RH  050%=      5-min Rain = 0
KAM1 100119Z 01005KT 00/M09 A3036 RMK A01 T00041086  RH  051%=      5-min Rain = 0
KAM1 100120Z 01005KT 00/M09 A3036 RMK A01 T00041085  RH  051%=      5-min Rain = 0
KAM1 100121Z 02005KT 01/M08 A3036 RMK A01 T00051084  RH  051%=      5-min Rain = 0
KAM1 100122Z 02004KT 01/M08 A3036 RMK A01 T00061084  RH  051%=      5-min Rain = 0
KAM1 100123Z 02004KT 01/M08 A3036 RMK A01 T00071083  RH  051%=      5-min Rain = 0
KAM1 100124Z 02004KT 01/M08 A3036 RMK A01 T00081084  RH  050%=      5-min Rain = 0
KAM1 100125Z 02004KT 01/M09 A3036 RMK A01 T00061086  RH  050%=      5-min Rain = 0
KAM1 100126Z 02004KT 00/M09 A3036 RMK A01 T00041087  RH  050%=      5-min Rain = 0
KAM1 100127Z 01005KT 00/M09 A3036 RMK A01 T00031086  RH  051%=      5-min Rain = 0
KAM1 100128Z 01005KT 00/M08 A3036 RMK A01 T00031084  RH  052%=      5-min Rain = 0
KAM1 100129Z 02005KT 01/M08 A3036 RMK A01 T00051083  RH  052%=      5-min Rain = 0
KAM1 100130Z 02005KT 01/M08 A3036 RMK A01 T00061082  RH  052%=      5-min Rain = 0
KAM1 100131Z 02005KT 01/M08 A3036 RMK A01 T00081081  RH  051%=      5-min Rain = 0
KAM1 100132Z 02005KT 01/M08 A3036 RMK A01 T00091082  RH  051%=      5-min Rain = 0
KAM1 100133Z 03005KT 01/M08 A3036 RMK A01 T00091082  RH  051%=      5-min Rain = 0
KAM1 100134Z 03005KT 01/M08 A3036 RMK A01 T00091082  RH  051%=      5-min Rain = 0
KAM1 100135Z 03005KT 01/M08 A3036 RMK A01 T00091081  RH  051%=      5-min Rain = 0
KAM1 100136Z 03005KT 01/M08 A3036 RMK A01 T00111080  RH  051%=      5-min Rain = 0
KAM1 100137Z 03005KT 01/M08 A3036 RMK A01 T00131079  RH  050%=      5-min Rain = 0
KAM1 100138Z 03005KT 02/M08 A3036 RMK A01 T00151078  RH  050%=      5-min Rain = 0
KAM1 100139Z 03005KT 02/M08 A3036 RMK A01 T00181077  RH  049%=      5-min Rain = 0
KAM1 100140Z 03005KT 02/M08 A3036 RMK A01 T00191078  RH  049%=      5-min Rain = 0
KAM1 100141Z 03005KT 02/M08 A3036 RMK A01 T00201078  RH  048%=      5-min Rain = 0
KAM1 100142Z 03006KT 02/M08 A3036 RMK A01 T00211078  RH  048%=      5-min Rain = 0
KAM1 100143Z 03006KT 02/M08 A3036 RMK A01 T00221078  RH  048%=      5-min Rain = 0
KAM1 100144Z 03005KT 02/M08 A3036 RMK A01 T00231079  RH  047%=      5-min Rain = 0
KAM1 100145Z 03005KT 02/M08 A3036 RMK A01 T00201081  RH  047%=      5-min Rain = 0
KAM1 100146Z 03005KT 02/M08 A3036 RMK A01 T00171083  RH  047%=      5-min Rain = 0
KAM1 100147Z 04005KT 02/M08 A3036 RMK A01 T00151084  RH  048%=      5-min Rain = 0
KAM1 100148Z 04005KT 01/M08 A3036 RMK A01 T00121084  RH  048%=      5-min Rain = 0
KAM1 100149Z 04004KT 01/M09 A3036 RMK A01 T00111085  RH  049%=      5-min Rain = 0
KAM1 100150Z 04004KT 01/M09 A3036 RMK A01 T00091085  RH  050%=      5-min Rain = 0
KAM1 100151Z 04005KT 01/M09 A3036 RMK A01 T00081085  RH  050%=      5-min Rain = 0
KAM1 100152Z 04005KT 01/M08 A3036 RMK A01 T00071084  RH  050%=      5-min Rain = 0
KAM1 100153Z 04005KT 01/M08 A3036 RMK A01 T00081084  RH  050%=      5-min Rain = 0
KAM1 100154Z 04005KT 01/M08 A3036 RMK A01 T00091083  RH  051%=      5-min Rain = 0
KAM1 100155Z 04005KT 01/M08 A3036 RMK A01 T00101082  RH  050%=      5-min Rain = 0
KAM1 100156Z 04005KT 01/M08 A3036 RMK A01 T00111082  RH  050%=      5-min Rain = 0
KAM1 100157Z 04006KT 01/M08 A3036 RMK A01 T00111082  RH  050%=      5-min Rain = 0
KAM1 100158Z 04006KT 01/M08 A3036 RMK A01 T00111083  RH  049%=      5-min Rain = 0
KAM1 100159Z 04006KT 01/M08 A3036 RMK A01 T00121083  RH  049%=      5-min Rain = 0
KAM1 100200Z 04006KT 01/M08 A3036 RMK A01 T00111084  RH  049%=      5-min Rain = 0
KAM1 100201Z 04006KT 01/M09 A3036 RMK A01 T00081087  RH  049%=      5-min Rain = 0
KAM1 100202Z 04006KT 00/M09 A3036 RMK A01 T00041091  RH  049%=      5-min Rain = 0
KAM1 100203Z 04005KT 00/09 A3036 RMK A01 T00000-92  RH  050%=      5-min Rain = 0
KAM1 100204Z 04005KT M00/M09 A3036 RMK A01 T10031093  RH  051%=      5-min Rain = 0
KAM1 100205Z 04005KT M01/M09 A3036 RMK A01 T10051093  RH  051%=      5-min Rain = 0
KAM1 100206Z 03006KT M01/M09 A3036 RMK A01 T10061091  RH  053%=      5-min Rain = 0
KAM1 100207Z 03006KT M00/M09 A3036 RMK A01 T10041088  RH  053%=      5-min Rain = 0
KAM1 100208Z 03006KT M00/M09 A3037 RMK A01 T10021086  RH  053%=      5-min Rain = 0
KAM1 100209Z 02006KT M00/M09 A3037 RMK A01 T10011087  RH  052%=      5-min Rain = 0
KAM1 100210Z 02006KT M00/M09 A3037 RMK A01 T10041090  RH  052%=      5-min Rain = 0
KAM1 100211Z 02006KT M01/M09 A3037 RMK A01 T10061090  RH  053%=      5-min Rain = 0
KAM1 100212Z 02006KT M01/M09 A3037 RMK A01 T10071090  RH  053%=      5-min Rain = 0
KAM1 100213Z 02005KT M01/M09 A3037 RMK A01 T10081089  RH  054%=      5-min Rain = 0
KAM1 100214Z 02005KT M01/M09 A3037 RMK A01 T10071089  RH  054%=      5-min Rain = 0
KAM1 100215Z 02005KT M01/M09 A3037 RMK A01 T10071088  RH  054%=      5-min Rain = 0
KAM1 100216Z 02005KT M01/M09 A3037 RMK A01 T10061087  RH  055%=      5-min Rain = 0
KAM1 100217Z 02005KT M01/M09 A3037 RMK A01 T10051086  RH  054%=      5-min Rain = 0
KAM1 100218Z 02004KT M00/M09 A3037 RMK A01 T10031085  RH  054%=      5-min Rain = 0
KAM1 100219Z 02004KT M00/M08 A3036 RMK A01 T10011084  RH  054%=      5-min Rain = 0
KAM1 100220Z 02004KT 00/M08 A3036 RMK A01 T00011083  RH  053%=      5-min Rain = 0
KAM1 100221Z 02004KT 00/M08 A3036 RMK A01 T00011084  RH  053%=      5-min Rain = 0
KAM1 100222Z 01003KT M00/M09 A3036 RMK A01 T10011087  RH  052%=      5-min Rain = 0
KAM1 100223Z 01004KT M01/M09 A3037 RMK A01 T10051090  RH  053%=      5-min Rain = 0
KAM1 100224Z 00004KT M01/M09 A3037 RMK A01 T10081090  RH  054%=      5-min Rain = 0
KAM1 100225Z 35005KT M01/M09 A3037 RMK A01 T10101090  RH  054%=      5-min Rain = 0
KAM1 100226Z 36005KT M01/M09 A3037 RMK A01 T10111091  RH  055%=      5-min Rain = 0
KAM1 100227Z 01005KT M01/M09 A3037 RMK A01 T10141092  RH  055%=      5-min Rain = 0
KAM1 100228Z 02004KT M02/M09 A3037 RMK A01 T10151092  RH  056%=      5-min Rain = 0
KAM1 100229Z 02004KT M02/M09 A3036 RMK A01 T10161091  RH  057%=      5-min Rain = 0
KAM1 100230Z 02003KT M02/M09 A3036 RMK A01 T10171091  RH  057%=      5-min Rain = 0
KAM1 100231Z 02004KT M02/M09 A3037 RMK A01 T10171090  RH  058%=      5-min Rain = 0
KAM1 100232Z 01005KT M02/M09 A3037 RMK A01 T10171089  RH  058%=      5-min Rain = 0
KAM1 100233Z 01005KT M01/M09 A3037 RMK A01 T10141086  RH  058%=      5-min Rain = 0
KAM1 100234Z 00006KT M01/M09 A3037 RMK A01 T10121086  RH  057%=      5-min Rain = 0
KAM1 100235Z 00006KT M01/M09 A3037 RMK A01 T10121087  RH  057%=      5-min Rain = 0
KAM1 100236Z 00006KT M01/M09 A3037 RMK A01 T10131088  RH  057%=      5-min Rain = 0
KAM1 100237Z 00005KT M01/M09 A3037 RMK A01 T10141088  RH  057%=      5-min Rain = 0
KAM1 100238Z 00005KT M02/M09 A3037 RMK A01 T10151087  RH  058%=      5-min Rain = 0
KAM1 100239Z 36005KT M02/M09 A3037 RMK A01 T10161086  RH  059%=      5-min Rain = 0
KAM1 100240Z 36004KT M02/M09 A3037 RMK A01 T10161086  RH  059%=      5-min Rain = 0
KAM1 100241Z 00004KT M02/M09 A3037 RMK A01 T10161085  RH  059%=      5-min Rain = 0
KAM1 100242Z 00003KT M02/M09 A3037 RMK A01 T10161085  RH  059%=      5-min Rain = 0
KAM1 100243Z 00003KT M02/M09 A3037 RMK A01 T10161085  RH  059%=      5-min Rain = 0
KAM1 100244Z 00002KT M02/M09 A3037 RMK A01 T10161085  RH  059%=      5-min Rain = 0
KAM1 100245Z 00002KT M02/M09 A3037 RMK A01 T10151085  RH  059%=      5-min Rain = 0
KAM1 100246Z 36002KT M01/M08 A3037 RMK A01 T10141084  RH  059%=      5-min Rain = 0
KAM1 100247Z 35003KT M01/M08 A3037 RMK A01 T10131084  RH  059%=      5-min Rain = 0
KAM1 100248Z 35004KT M01/M09 A3037 RMK A01 T10131085  RH  058%=      5-min Rain = 0
KAM1 100249Z 35004KT M01/M09 A3037 RMK A01 T10131085  RH  058%=      5-min Rain = 0
KAM1 100250Z 35004KT M01/M09 A3037 RMK A01 T10141085  RH  058%=      5-min Rain = 0
KAM1 100251Z 35004KT M01/M09 A3037 RMK A01 T10141085  RH  058%=      5-min Rain = 0
KAM1 100252Z 36004KT M01/M09 A3037 RMK A01 T10141085  RH  059%=      5-min Rain = 0
KAM1 100253Z 36003KT M01/M08 A3037 RMK A01 T10141084  RH  059%=      5-min Rain = 0
KAM1 100254Z 36002KT M02/M09 A3037 RMK A01 T10151085  RH  059%=      5-min Rain = 0
KAM1 100255Z 36002KT M02/M09 A3037 RMK A01 T10161085  RH  059%=      5-min Rain = 0
KAM1 100256Z 35002KT M02/M09 A3037 RMK A01 T10161086  RH  059%=      5-min Rain = 0
KAM1 100257Z 35002KT M02/M09 A3037 RMK A01 T10171086  RH  059%=      5-min Rain = 0
KAM1 100258Z 34002KT M02/M09 A3037 RMK A01 T10171086  RH  060%=      5-min Rain = 0
KAM1 100259Z 34002KT M02/M09 A3037 RMK A01 T10201088  RH  060%=      5-min Rain = 0
KAM1 100300Z 35002KT M02/M09 A3037 RMK A01 T10231088  RH  061%=      5-min Rain = 0
KAM1 100301Z 35002KT M02/M09 A3037 RMK A01 T10231087  RH  062%=      5-min Rain = 0
KAM1 100302Z 35002KT M02/M09 A3037 RMK A01 T10231087  RH  061%=      5-min Rain = 0
KAM1 100303Z 35002KT M03/M09 A3037 RMK A01 T10251087  RH  062%=      5-min Rain = 0
KAM1 100304Z 35002KT M02/M08 A3037 RMK A01 T10221084  RH  063%=      5-min Rain = 0
KAM1 100305Z 35002KT M02/M08 A3037 RMK A01 T10171080  RH  062%=      5-min Rain = 0
KAM1 100306Z 35002KT M01/M08 A3037 RMK A01 T10121078  RH  061%=      5-min Rain = 0
KAM1 100307Z 34002KT M01/M08 A3037 RMK A01 T10091078  RH  059%=      5-min Rain = 0
KAM1 100308Z 34002KT M01/M08 A3037 RMK A01 T10071079  RH  058%=      5-min Rain = 0
KAM1 100309Z 35002KT M01/M08 A3037 RMK A01 T10081082  RH  057%=      5-min Rain = 0
KAM1 100310Z 35003KT M01/M09 A3037 RMK A01 T10111086  RH  057%=      5-min Rain = 0
KAM1 100311Z 35003KT M01/M09 A3037 RMK A01 T10131086  RH  058%=      5-min Rain = 0
KAM1 100312Z 36003KT M02/M09 A3037 RMK A01 T10151087  RH  058%=      5-min Rain = 0
KAM1 100313Z 36002KT M02/M09 A3037 RMK A01 T10171087  RH  059%=      5-min Rain = 0
KAM1 100314Z 36002KT M02/M09 A3037 RMK A01 T10171085  RH  060%=      5-min Rain = 0
KAM1 100315Z 36002KT M02/M08 A3037 RMK A01 T10161084  RH  060%=      5-min Rain = 0
KAM1 100316Z 36002KT M02/M08 A3037 RMK A01 T10151083  RH  060%=      5-min Rain = 0
KAM1 100317Z 35002KT M02/M08 A3037 RMK A01 T10151082  RH  060%=      5-min Rain = 0
KAM1 100318Z 35002KT M01/M08 A3037 RMK A01 T10131081  RH  060%=      5-min Rain = 0
KAM1 100319Z 34002KT M01/M08 A3037 RMK A01 T10111080  RH  060%=      5-min Rain = 0
KAM1 100320Z 34002KT M01/M08 A3037 RMK A01 T10111081  RH  059%=      5-min Rain = 0
KAM1 100321Z 34002KT M01/M08 A3037 RMK A01 T10101081  RH  059%=      5-min Rain = 0
KAM1 100322Z 33002KT M01/M08 A3037 RMK A01 T10091080  RH  059%=      5-min Rain = 0
KAM1 100323Z 32001KT M01/M08 A3037 RMK A01 T10071079  RH  058%=      5-min Rain = 0
KAM1 100324Z 32002KT M01/M08 A3037 RMK A01 T10061079  RH  057%=      5-min Rain = 0
KAM1 100325Z 32002KT M01/M08 A3037 RMK A01 T10061081  RH  057%=      5-min Rain = 0
KAM1 100326Z 32002KT M01/M08 A3037 RMK A01 T10081083  RH  057%=      5-min Rain = 0
KAM1 100327Z 33002KT M01/M08 A3037 RMK A01 T10091082  RH  057%=      5-min Rain = 0
KAM1 100328Z 33001KT M01/M08 A3037 RMK A01 T10101083  RH  057%=      5-min Rain = 0
KAM1 100329Z 33001KT M01/M08 A3037 RMK A01 T10101083  RH  058%=      5-min Rain = 0
KAM1 100330Z 34001KT M01/M08 A3037 RMK A01 T10061080  RH  057%=      5-min Rain = 0
KAM1 100331Z 33001KT M00/M08 A3037 RMK A01 T10031079  RH  056%=      5-min Rain = 0
KAM1 100332Z 33001KT M00/M08 A3037 RMK A01 T10021081  RH  055%=      5-min Rain = 0
KAM1 100333Z 33001KT M01/M08 A3037 RMK A01 T10051084  RH  055%=      5-min Rain = 0
KAM1 100334Z 33001KT M01/M08 A3037 RMK A01 T10051083  RH  056%=      5-min Rain = 0
KAM1 100335Z 33002KT M00/M08 A3037 RMK A01 T10041081  RH  056%=      5-min Rain = 0
KAM1 100336Z 33002KT M00/M08 A3037 RMK A01 T10021080  RH  055%=      5-min Rain = 0
KAM1 100337Z 33002KT 00/08 A3037 RMK A01 T00-00-81  RH  055%=      5-min Rain = 0
KAM1 100338Z 33002KT 00/M08 A3037 RMK A01 T00011081  RH  054%=      5-min Rain = 0
KAM1 100339Z 33002KT 00/M08 A3037 RMK A01 T00011082  RH  054%=      5-min Rain = 0
KAM1 100340Z 33002KT 00/M08 A3037 RMK A01 T00031081  RH  053%=      5-min Rain = 0
KAM1 100341Z 33002KT 00/M08 A3037 RMK A01 T00041082  RH  053%=      5-min Rain = 0
KAM1 100342Z 33002KT 00/M08 A3037 RMK A01 T00041082  RH  053%=      5-min Rain = 0
KAM1 100343Z 34002KT 00/M08 A3037 RMK A01 T00041082  RH  052%=      5-min Rain = 0
KAM1 100344Z 34002KT 00/M08 A3037 RMK A01 T00021083  RH  053%=      5-min Rain = 0
KAM1 100345Z 34002KT 00/M08 A3037 RMK A01 T00011084  RH  053%=      5-min Rain = 0
KAM1 100346Z 34002KT M00/M08 A3037 RMK A01 T10011084  RH  053%=      5-min Rain = 0
KAM1 100347Z 33002KT M00/M09 A3037 RMK A01 T10021085  RH  054%=      5-min Rain = 0
KAM1 100348Z 33003KT M00/M09 A3037 RMK A01 T10041085  RH  054%=      5-min Rain = 0
KAM1 100349Z 33003KT M01/M09 A3037 RMK A01 T10051085  RH  055%=      5-min Rain = 0
KAM1 100350Z 33003KT M01/M09 A3037 RMK A01 T10051085  RH  055%=      5-min Rain = 0
KAM1 100351Z 33003KT M01/M08 A3037 RMK A01 T10051084  RH  055%=      5-min Rain = 0
KAM1 100352Z 32003KT M01/M08 A3037 RMK A01 T10051084  RH  055%=      5-min Rain = 0
KAM1 100353Z 32003KT M01/M08 A3037 RMK A01 T10051084  RH  055%=      5-min Rain = 0
KAM1 100354Z 32003KT M01/M09 A3037 RMK A01 T10051085  RH  055%=      5-min Rain = 0
KAM1 100355Z 32003KT M01/M09 A3037 RMK A01 T10061086  RH  055%=      5-min Rain = 0
KAM1 100356Z 32003KT M01/M09 A3037 RMK A01 T10071086  RH  055%=      5-min Rain = 0
KAM1 100357Z 32003KT M01/M09 A3037 RMK A01 T10081086  RH  056%=      5-min Rain = 0
KAM1 100358Z 32003KT M01/M09 A3037 RMK A01 T10091086  RH  056%=      5-min Rain = 0
KAM1 100359Z 32003KT M01/M09 A3037 RMK A01 T10101085  RH  057%=      5-min Rain = 0
KAM1 100400Z 33003KT M01/M08 A3037 RMK A01 T10091084  RH  057%=      5-min Rain = 0
KAM1 100401Z 33003KT M01/M08 A3037 RMK A01 T10081084  RH  056%=      5-min Rain = 0
KAM1 100402Z 33002KT M01/M08 A3037 RMK A01 T10081084  RH  056%=      5-min Rain = 0
KAM1 100403Z 33003KT M01/M08 A3037 RMK A01 T10081084  RH  056%=      5-min Rain = 0
KAM1 100404Z 33003KT M01/M09 A3037 RMK A01 T10081085  RH  056%=      5-min Rain = 0
KAM1 100405Z 33003KT M01/M09 A3037 RMK A01 T10091086  RH  056%=      5-min Rain = 0
KAM1 100406Z 34003KT M01/M09 A3037 RMK A01 T10111086  RH  056%=      5-min Rain = 0
KAM1 100407Z 34003KT M01/M09 A3037 RMK A01 T10121087  RH  057%=      5-min Rain = 0
KAM1 100408Z 34003KT M01/M09 A3037 RMK A01 T10141088  RH  057%=      5-min Rain = 0
KAM1 100409Z 34003KT M02/M09 A3037 RMK A01 T10151088  RH  058%=      5-min Rain = 0
KAM1 100410Z 34003KT M02/M09 A3037 RMK A01 T10161088  RH  058%=      5-min Rain = 0
KAM1 100411Z 34004KT M02/M09 A3037 RMK A01 T10161087  RH  058%=      5-min Rain = 0
KAM1 100412Z 34004KT M02/M09 A3037 RMK A01 T10161086  RH  059%=      5-min Rain = 0
KAM1 100413Z 34003KT M01/M08 A3037 RMK A01 T10141084  RH  059%=      5-min Rain = 0
KAM1 100414Z 34003KT M01/M08 A3037 RMK A01 T10131084  RH  059%=      5-min Rain = 0
KAM1 100415Z 34003KT M01/M08 A3037 RMK A01 T10121083  RH  059%=      5-min Rain = 0
KAM1 100416Z 34003KT M01/M08 A3037 RMK A01 T10121084  RH  058%=      5-min Rain = 0
KAM1 100417Z 34003KT M01/M08 A3037 RMK A01 T10111083  RH  058%=      5-min Rain = 0
KAM1 100418Z 34003KT M01/M08 A3037 RMK A01 T10111083  RH  058%=      5-min Rain = 0
KAM1 100419Z 34003KT M01/M08 A3037 RMK A01 T10111083  RH  058%=      5-min Rain = 0
KAM1 100420Z 34003KT M01/M09 A3037 RMK A01 T10121085  RH  058%=      5-min Rain = 0
KAM1 100421Z 34003KT M01/M09 A3037 RMK A01 T10141086  RH  058%=      5-min Rain = 0
KAM1 100422Z 34003KT M02/M09 A3037 RMK A01 T10161087  RH  059%=      5-min Rain = 0
KAM1 100423Z 34003KT M02/M09 A3037 RMK A01 T10181087  RH  059%=      5-min Rain = 0
KAM1 100424Z 33003KT M02/M09 A3037 RMK A01 T10191087  RH  060%=      5-min Rain = 0
KAM1 100425Z 33003KT M02/M09 A3037 RMK A01 T10191086  RH  060%=      5-min Rain = 0
KAM1 100426Z 32003KT M02/M09 A3037 RMK A01 T10191085  RH  061%=      5-min Rain = 0
KAM1 100427Z 32003KT M02/M09 A3037 RMK A01 T10191085  RH  061%=      5-min Rain = 0
KAM1 100428Z 31003KT M02/M08 A3037 RMK A01 T10191084  RH  061%=      5-min Rain = 0
KAM1 100429Z 31003KT M02/M08 A3037 RMK A01 T10171083  RH  061%=      5-min Rain = 0
KAM1 100430Z 31004KT M02/M08 A3037 RMK A01 T10161083  RH  060%=      5-min Rain = 0
KAM1 100431Z 30004KT M02/M08 A3037 RMK A01 T10161084  RH  060%=      5-min Rain = 0
KAM1 100432Z 30004KT M02/M09 A3037 RMK A01 T10211091  RH  059%=      5-min Rain = 0
KAM1 100433Z 30004KT M02/M09 A3037 RMK A01 T10241090  RH  061%=      5-min Rain = 0
KAM1 100434Z 30004KT M02/M09 A3037 RMK A01 T10221086  RH  062%=      5-min Rain = 0
KAM1 100435Z 30004KT M02/M08 A3037 RMK A01 T10191083  RH  062%=      5-min Rain = 0
KAM1 100436Z 30004KT M02/M09 A3037 RMK A01 T10191085  RH  061%=      5-min Rain = 0
KAM1 100437Z 30004KT M02/M09 A3037 RMK A01 T10221088  RH  060%=      5-min Rain = 0
KAM1 100438Z 30004KT M02/M09 A3037 RMK A01 T10241090  RH  061%=      5-min Rain = 0
KAM1 100439Z 30004KT M03/M09 A3037 RMK A01 T10261090  RH  061%=      5-min Rain = 0
KAM1 100440Z 30004KT M03/M09 A3037 RMK A01 T10271089  RH  062%=      5-min Rain = 0
KAM1 100441Z 30004KT M03/M09 A3037 RMK A01 T10271089  RH  062%=      5-min Rain = 0
KAM1 100442Z 30004KT M03/M09 A3037 RMK A01 T10261088  RH  062%=      5-min Rain = 0
KAM1 100443Z 30004KT M03/M09 A3037 RMK A01 T10271089  RH  062%=      5-min Rain = 0
KAM1 100444Z 30004KT M03/M09 A3037 RMK A01 T10291091  RH  062%=      5-min Rain = 0
KAM1 100445Z 30004KT M03/M09 A3037 RMK A01 T10321094  RH  062%=      5-min Rain = 0
KAM1 100446Z 30004KT M04/M10 A3037 RMK A01 T10351095  RH  063%=      5-min Rain = 0
KAM1 100447Z 30004KT M04/M10 A3037 RMK A01 T10381096  RH  064%=      5-min Rain = 0
KAM1 100448Z 31004KT M04/M10 A3037 RMK A01 T10391095  RH  065%=      5-min Rain = 0
KAM1 100449Z 31003KT M04/M10 A3037 RMK A01 T10401095  RH  066%=      5-min Rain = 0
KAM1 100450Z 31003KT M04/M10 A3037 RMK A01 T10411095  RH  066%=      5-min Rain = 0
KAM1 100451Z 31003KT M04/M10 A3037 RMK A01 T10431096  RH  066%=      5-min Rain = 0
KAM1 100452Z 31003KT M04/M10 A3037 RMK A01 T10441096  RH  067%=      5-min Rain = 0
KAM1 100453Z 31003KT M04/M10 A3037 RMK A01 T10441096  RH  067%=      5-min Rain = 0
KAM1 100454Z 31004KT M05/M10 A3037 RMK A01 T10451095  RH  068%=      5-min Rain = 0
KAM1 100455Z 30004KT M05/M09 A3037 RMK A01 T10451094  RH  069%=      5-min Rain = 0
KAM1 100456Z 30004KT M04/M09 A3037 RMK A01 T10441092  RH  069%=      5-min Rain = 0
KAM1 100457Z 30004KT M04/M09 A3037 RMK A01 T10421090  RH  069%=      5-min Rain = 0
KAM1 100458Z 30004KT M04/M09 A3037 RMK A01 T10391087  RH  069%=      5-min Rain = 0
KAM1 100459Z 30004KT M04/M09 A3037 RMK A01 T10351085  RH  068%=      5-min Rain = 0
KAM1 100500Z 29004KT M03/M08 A3037 RMK A01 T10321084  RH  067%=      5-min Rain = 0
KAM1 100501Z 29004KT M03/M08 A3037 RMK A01 T10311084  RH  067%=      5-min Rain = 0
KAM1 100502Z 29004KT M03/M08 A3037 RMK A01 T10291084  RH  066%=      5-min Rain = 0
KAM1 100503Z 29004KT M03/M08 A3037 RMK A01 T10281084  RH  065%=      5-min Rain = 0
KAM1 100504Z 29004KT M03/M09 A3037 RMK A01 T10301087  RH  065%=      5-min Rain = 0
KAM1 100505Z 29003KT M03/M09 A3037 RMK A01 T10311088  RH  065%=      5-min Rain = 0
KAM1 100506Z 29003KT M03/M09 A3037 RMK A01 T10331089  RH  065%=      5-min Rain = 0
KAM1 100507Z 29003KT M03/M09 A3037 RMK A01 T10341089  RH  066%=      5-min Rain = 0
KAM1 100508Z 29003KT M03/M09 A3037 RMK A01 T10331087  RH  067%=      5-min Rain = 0
KAM1 100509Z 29003KT M03/M09 A3037 RMK A01 T10321086  RH  066%=      5-min Rain = 0
KAM1 100510Z 29003KT M03/M09 A3037 RMK A01 T10311086  RH  066%=      5-min Rain = 0
KAM1 100511Z 30002KT M03/M09 A3037 RMK A01 T10301085  RH  066%=      5-min Rain = 0
KAM1 100512Z 30002KT M03/M09 A3037 RMK A01 T10301085  RH  066%=      5-min Rain = 0
KAM1 100513Z 30002KT M03/M09 A3037 RMK A01 T10291085  RH  065%=      5-min Rain = 0
KAM1 100514Z 30002KT M03/M09 A3037 RMK A01 T10281085  RH  065%=      5-min Rain = 0
KAM1 100515Z 30002KT M03/M09 A3037 RMK A01 T10291086  RH  065%=      5-min Rain = 0
KAM1 100516Z 30002KT M03/M09 A3037 RMK A01 T10291086  RH  065%=      5-min Rain = 0
KAM1 100517Z 30002KT M03/M09 A3037 RMK A01 T10291085  RH  065%=      5-min Rain = 0
KAM1 100518Z 30002KT M03/M08 A3037 RMK A01 T10281083  RH  066%=      5-min Rain = 0
KAM1 100519Z 30002KT M03/M08 A3037 RMK A01 T10261082  RH  065%=      5-min Rain = 0
KAM1 100520Z 30002KT M02/M08 A3037 RMK A01 T10241080  RH  065%=      5-min Rain = 0
KAM1 100521Z 29002KT M02/M08 A3037 RMK A01 T10201077  RH  065%=      5-min Rain = 0
KAM1 100522Z 29002KT M02/M08 A3037 RMK A01 T10171076  RH  064%=      5-min Rain = 0
KAM1 100523Z 29002KT M01/M08 A3037 RMK A01 T10141075  RH  063%=      5-min Rain = 0
KAM1 100524Z 29002KT M01/M07 A3037 RMK A01 T10101074  RH  062%=      5-min Rain = 0
KAM1 100525Z 29002KT M01/M07 A3037 RMK A01 T10081074  RH  061%=      5-min Rain = 0
KAM1 100526Z 28002KT M01/M07 A3037 RMK A01 T10051074  RH  060%=      5-min Rain = 0
KAM1 100527Z 28002KT M00/M07 A3037 RMK A01 T10031073  RH  059%=      5-min Rain = 0
KAM1 100528Z 28002KT M00/M07 A3037 RMK A01 T10011074  RH  058%=      5-min Rain = 0
KAM1 100529Z 28002KT M00/M07 A3037 RMK A01 T10011074  RH  058%=      5-min Rain = 0
KAM1 100530Z 27002KT 00/07 A3037 RMK A01 T00000-74  RH  057%=      5-min Rain = 0
KAM1 100531Z 27002KT 00/M07 A3037 RMK A01 T00011074  RH  057%=      5-min Rain = 0
KAM1 100532Z 27002KT 00/M08 A3037 RMK A01 T00011075  RH  057%=      5-min Rain = 0
KAM1 100533Z 27002KT 00/08 A3037 RMK A01 T00-00-77  RH  056%=      5-min Rain = 0
KAM1 100534Z 27002KT M01/M08 A3037 RMK A01 T10051082  RH  056%=      5-min Rain = 0
KAM1 100535Z 27002KT M01/M09 A3037 RMK A01 T10111086  RH  057%=      5-min Rain = 0
KAM1 100536Z 27002KT M02/M09 A3037 RMK A01 T10171088  RH  058%=      5-min Rain = 0
KAM1 100537Z 27002KT M02/M09 A3036 RMK A01 T10201087  RH  060%=      5-min Rain = 0
KAM1 100538Z 27002KT M02/M09 A3036 RMK A01 T10211086  RH  061%=      5-min Rain = 0
KAM1 100539Z 27002KT M02/M09 A3036 RMK A01 T10231087  RH  062%=      5-min Rain = 0
KAM1 100540Z 27002KT M02/M09 A3036 RMK A01 T10241086  RH  063%=      5-min Rain = 0
KAM1 100541Z 27002KT M03/M09 A3036 RMK A01 T10251085  RH  063%=      5-min Rain = 0
KAM1 100542Z 27002KT M03/M09 A3036 RMK A01 T10251085  RH  064%=      5-min Rain = 0
KAM1 100543Z 27002KT M02/M08 A3036 RMK A01 T10241083  RH  064%=      5-min Rain = 0
KAM1 100544Z 27002KT M02/M08 A3036 RMK A01 T10241083  RH  064%=      5-min Rain = 0
KAM1 100545Z 25004KT M03/M09 A3036 RMK A01 T10251085  RH  063%=      5-min Rain = 0
KAM1 100546Z 24006KT M03/M09 A3036 RMK A01 T10301091  RH  063%=      5-min Rain = 0
KAM1 100547Z 25005KT M04/M10 A3036 RMK A01 T10381097  RH  063%=      5-min Rain = 0
KAM1 100548Z 25006KT M04/M10 A3036 RMK A01 T10431098  RH  066%=      5-min Rain = 0
KAM1 100549Z 25006KT M05/M10 A3036 RMK A01 T10461097  RH  068%=      5-min Rain = 0
KAM1 100550Z 25007KT M05/M10 A3036 RMK A01 T10491097  RH  069%=      5-min Rain = 0
KAM1 100551Z 25007KT M05/M10 A3036 RMK A01 T10511096  RH  070%=      5-min Rain = 0
KAM1 100552Z 25007KT M05/M10 A3036 RMK A01 T10531096  RH  072%=      5-min Rain = 0
KAM1 100553Z 25007KT M05/M10 A3036 RMK A01 T10541096  RH  072%=      5-min Rain = 0
KAM1 100554Z 25007KT M06/M10 A3036 RMK A01 T10551096  RH  073%=      5-min Rain = 0
KAM1 100555Z 25007KT M06/M10 A3036 RMK A01 T10561096  RH  074%=      5-min Rain = 0
KAM1 100556Z 25007KT M06/M10 A3036 RMK A01 T10571096  RH  074%=      5-min Rain = 0
KAM1 100557Z 25007KT M06/M10 A3036 RMK A01 T10571095  RH  074%=      5-min Rain = 0
KAM1 100558Z 25007KT M06/M10 A3036 RMK A01 T10581096  RH  075%=      5-min Rain = 0
KAM1 100559Z 25007KT M06/M10 A3036 RMK A01 T10581095  RH  075%=      5-min Rain = 0

Page generated in 0.124 seconds.